<- Previous Day | Today | Next Day ->

All Data for 06 June 2020

 

Time A - D Temp A - D Dew Point A - D Humidity A - D Pressure A - D Wind A - D Wind Dir Gust A - D Rain Rate A - D Rain Total
00:00 9.6 6.5 81 1003.5 4.5 NW 10.7 0.0 0.0
00:01 9.6 6.3 80 1003.4 6.0 WSW 10.7 0.0 0.0
00:02 9.5 6.2 80 1003.8 5.4 NW 10.7 0.0 0.0
00:03 9.5 6.2 80 1003.5 3.1 SW 10.7 0.0 0.0
00:04 9.5 6.2 80 1003.7 3.1 S 10.7 0.0 0.0
00:06 9.4 6.1 80 1003.7 5.4 S 10.7 0.0 0.0
00:07 9.4 6.1 80 1003.7 5.4 NE 10.7 0.0 0.0
00:08 9.3 5.8 79 1003.5 5.4 NW 10.7 0.0 0.0
00:09 9.3 5.8 79 1003.5 5.4 SW 6.0 0.0 0.0
00:10 9.2 5.8 79 1003.4 3.8 W 6.0 0.0 0.0
00:11 9.2 5.8 79 1003.7 3.8 SW 6.0 0.0 0.0
00:12 9.2 5.6 78 1003.7 4.5 W 6.0 0.0 0.0
00:13 9.1 5.5 78 1003.6 5.4 W 5.4 0.0 0.0
00:14 9.1 5.5 78 1003.7 5.4 SW 5.4 0.0 0.0
00:15 9.0 5.4 78 1003.5 6.9 SW 6.9 0.0 0.0
00:16 9.0 5.4 78 1003.6 8.3 NW 8.3 0.0 0.0
00:17 9.0 5.2 77 1003.5 11.4 SW 11.4 0.0 0.0
00:18 9.0 5.2 77 1003.7 10.7 W 11.4 0.0 0.0
00:20 8.9 5.1 77 1003.8 7.6 SW 11.4 0.0 0.0
00:21 8.9 5.1 77 1003.7 9.2 SW 11.4 0.0 0.0
00:22 8.9 5.1 77 1003.8 8.3 W 11.4 0.0 0.0
00:23 8.8 5.0 77 1003.8 8.3 W 11.4 0.0 0.0
00:24 8.8 4.8 76 1003.9 5.4 SW 11.4 0.0 0.0
00:25 8.8 4.8 76 1003.9 7.6 SW 11.4 0.0 0.0
00:26 8.8 4.8 76 1003.9 7.6 SW 11.4 0.0 0.0
00:27 8.8 4.8 76 1003.9 7.6 SW 11.4 0.0 0.0
00:28 8.8 4.8 76 1003.7 4.5 NW 9.2 0.0 0.0
00:29 8.8 4.8 76 1003.8 4.5 SW 9.2 0.0 0.0
00:30 8.8 4.8 76 1004.0 5.4 SW 9.2 0.0 0.0
00:31 8.8 4.8 76 1004.0 3.8 SW 9.2 0.0 0.0
00:32 8.8 4.8 76 1003.8 6.0 S 9.2 0.0 0.0
00:34 8.8 4.8 76 1004.1 3.1 SW 7.6 0.0 0.0
00:35 8.8 4.8 76 1003.9 3.1 SW 7.6 0.0 0.0
00:36 8.8 4.8 76 1003.8 3.8 S 7.6 0.0 0.0
00:37 8.8 4.8 76 1003.9 5.4 SW 7.6 0.0 0.0
00:38 8.8 4.8 76 1004.0 5.4 NW 6.0 0.0 0.0
00:39 8.8 4.8 76 1003.9 5.4 SW 6.0 0.0 0.0
00:40 8.8 4.8 76 1004.1 4.5 S 6.0 0.0 0.0
00:41 8.8 4.8 76 1003.8 2.2 SW 6.0 0.0 0.0
00:42 8.7 4.7 76 1003.8 3.8 SW 6.0 0.0 0.0
00:43 8.7 4.7 76 1003.9 6.9 S 6.9 0.0 0.0
00:44 8.7 4.7 76 1003.9 4.5 SW 6.9 0.0 0.0
00:45 8.7 4.7 76 1004.0 6.0 W 6.9 0.0 0.0
00:46 8.7 4.7 76 1004.1 3.8 NW 6.9 0.0 0.0
00:47 8.7 4.7 76 1004.1 3.8 NW 6.9 0.0 0.0
00:49 8.6 4.6 76 1004.1 3.8 W 6.9 0.0 0.0
00:50 8.6 4.6 76 1004.0 4.5 W 6.9 0.0 0.0
00:51 8.6 4.6 76 1003.9 3.8 NW 6.9 0.0 0.0
00:52 8.6 4.6 76 1003.9 4.5 S 6.9 0.0 0.0
00:53 8.7 4.9 77 1004.2 4.5 W 6.9 0.0 0.0
00:54 8.7 4.9 77 1004.2 4.5 W 6.0 0.0 0.0
00:55 8.7 4.9 77 1004.2 5.4 SW 6.0 0.0 0.0
00:56 8.7 4.9 77 1004.0 7.6 SW 7.6 0.0 0.0
00:57 8.7 5.1 78 1003.9 7.6 W 7.6 0.0 0.0
00:58 8.8 5.2 78 1004.0 5.4 S 7.6 0.0 0.0
00:59 8.8 5.2 78 1004.1 7.6 W 7.6 0.0 0.0
01:00 8.8 5.4 79 1003.8 7.6 SW 7.6 0.0 0.0
01:01 8.8 5.4 79 1004.1 7.6 SW 7.6 0.0 0.0
01:03 8.8 5.4 79 1004.0 7.6 SW 7.6 0.0 0.0
01:04 8.8 5.4 79 1004.1 7.6 SW 7.6 0.0 0.0
01:05 8.8 5.4 79 1004.1 7.6 SW 7.6 0.0 0.0
01:06 9.1 5.7 79 1004.2 9.2 W 9.2 0.0 0.0
01:07 9.1 5.7 79 1004.2 6.9 W 9.2 0.0 0.0
01:08 9.1 5.5 78 1004.3 6.0 S 9.2 0.0 0.0
01:09 9.2 5.6 78 1003.9 9.8 W 9.8 0.0 0.0
01:10 9.2 5.6 78 1004.1 9.2 W 9.8 0.0 0.0
01:11 9.2 5.6 78 1004.2 6.9 W 9.8 0.0 0.0
01:12 9.2 5.4 77 1004.1 6.0 S 9.8 0.0 0.0
01:13 9.2 5.4 77 1004.1 6.0 W 9.8 0.0 0.0
01:14 9.2 5.4 77 1004.4 7.6 W 9.8 0.0 0.0
01:15 9.2 5.4 77 1004.0 7.6 NE 9.8 0.0 0.0
01:17 9.3 5.5 77 1004.1 9.2 SW 9.8 0.0 0.0
01:18 9.3 5.5 77 1004.0 9.8 SW 9.8 0.0 0.0
01:19 9.3 5.5 77 1004.0 11.4 SW 11.4 0.0 0.0
01:20 9.3 5.5 77 1004.1 8.3 SW 11.4 0.0 0.0
01:21 9.3 5.5 77 1004.0 11.4 S 11.4 0.0 0.0
01:22 9.3 5.5 77 1004.0 11.4 S 11.4 0.0 0.0
01:23 9.4 5.6 77 1004.1 9.2 SW 11.4 0.0 0.0
01:24 9.4 5.6 77 1004.2 8.3 SE 11.4 0.0 0.0
01:25 9.4 5.6 77 1004.0 7.6 SW 11.4 0.0 0.0
01:26 9.4 5.6 77 1004.1 8.3 S 11.4 0.0 0.0
01:27 9.4 5.6 77 1004.3 10.7 NW 11.4 0.0 0.0
01:28 9.4 5.6 77 1003.9 9.2 W 11.4 0.0 0.0
01:30 9.5 5.7 77 1004.2 7.6 N 11.4 0.0 0.0
01:31 9.5 5.9 78 1004.1 6.0 W 11.4 0.0 0.0
01:32 9.5 5.9 78 1004.1 6.0 N 10.7 0.0 0.0
01:33 9.5 5.9 78 1004.2 5.4 SE 10.7 0.0 0.0
01:34 9.5 5.9 78 1004.0 7.6 WNW 10.7 0.0 0.0
01:35 9.5 6.0 79 1004.3 4.5 W 10.7 0.0 0.0
01:36 9.5 6.0 79 1004.2 6.9 NW 10.7 0.0 0.0
01:37 9.5 6.0 79 1004.0 4.5 SW 10.7 0.0 0.0
01:38 9.5 6.0 79 1004.3 7.6 W 9.2 0.0 0.0
01:39 9.5 6.0 79 1004.2 9.2 SW 10.7 0.0 0.0
01:40 9.5 6.0 79 1004.2 9.2 S 10.7 0.0 0.0
01:41 9.6 6.3 80 1004.4 6.9 N 10.7 0.0 0.0
01:42 9.6 6.3 80 1004.2 6.0 S 10.7 0.0 0.0
01:44 9.6 6.3 80 1004.0 6.0 NW 10.7 0.0 0.0
01:45 9.6 6.3 80 1004.3 4.5 W 10.7 0.0 0.0
01:46 9.6 6.3 80 1004.1 7.6 W 10.7 0.0 0.0
01:47 9.6 6.3 80 1004.2 6.9 SW 10.7 0.0 0.0
01:48 9.6 6.3 80 1004.1 11.4 NW 11.4 0.0 0.0
01:49 9.6 6.3 80 1004.4 6.9 SW 11.4 0.0 0.0
01:50 9.6 6.3 80 1004.4 6.9 SW 11.4 0.0 0.0
01:51 9.6 6.3 80 1004.3 9.2 SW 12.1 0.0 0.0
01:52 9.7 6.4 80 1004.1 8.3 E 12.1 0.0 0.0
01:53 9.7 6.4 80 1004.3 8.3 E 12.1 0.0 0.0
01:54 9.7 6.2 79 1004.4 7.6 SW 12.1 0.0 0.0
01:55 9.7 6.2 79 1004.2 13.0 WSW 13.0 0.0 0.0
01:56 9.6 6.1 79 1004.2 9.8 S 13.0 0.0 0.0
01:57 9.6 6.0 78 1004.4 8.3 SW 13.0 0.0 0.0
01:59 9.6 6.0 78 1004.2 13.6 NW 13.6 0.0 0.0
02:00 9.6 6.0 78 1004.1 9.8 SW 13.6 0.0 0.0
02:01 9.6 5.8 77 1004.2 10.7 SW 13.6 0.0 0.0
02:02 9.6 5.8 77 1004.4 10.7 W 13.6 0.0 0.0
02:03 9.6 5.8 77 1004.0 8.3 W 13.6 0.0 0.0
02:04 9.6 5.8 77 1004.3 10.7 W 13.6 0.0 0.0
02:05 9.6 5.6 76 1004.3 8.3 NW 13.6 0.0 0.0
02:06 9.6 5.6 76 1004.2 9.2 WSW 13.6 0.0 0.0
02:07 9.6 5.6 76 1004.3 12.1 SW 13.6 0.0 0.0
02:08 9.6 5.6 76 1004.2 9.8 W 13.6 0.0 0.0
02:09 9.6 5.6 76 1004.5 8.3 NW 13.6 0.0 0.0
02:10 9.6 5.6 76 1004.3 8.3 NW 12.1 0.0 0.0
02:11 9.6 5.4 75 1004.4 3.8 SW 12.1 0.0 0.0
02:13 9.6 5.4 75 1004.2 8.3 NW 12.1 0.0 0.0
02:14 9.6 5.4 75 1004.4 7.6 W 12.1 0.0 0.0
02:15 9.6 5.4 75 1004.2 8.3 W 12.1 0.0 0.0
02:16 9.6 5.4 75 1004.4 12.1 W 12.1 0.0 0.0
02:17 9.6 5.4 75 1004.5 9.2 WNW 12.1 0.0 0.0
02:18 9.6 5.4 75 1004.5 9.2 WNW 12.1 0.0 0.0
02:19 9.6 5.4 75 1004.3 10.7 SW 12.1 0.0 0.0
02:20 9.6 5.4 75 1004.4 17.4 S 17.4 0.0 0.0
02:21 9.6 5.4 75 1004.3 13.0 SW 17.4 0.0 0.0
02:22 9.6 5.4 75 1004.4 13.0 SW 17.4 0.0 0.0
02:23 9.7 5.5 75 1004.4 10.7 SW 17.4 0.0 0.0
02:24 9.7 5.5 75 1004.3 10.7 SW 17.4 0.0 0.0
02:26 9.7 5.5 75 1004.5 9.2 S 17.4 0.0 0.0
02:27 9.7 5.3 74 1004.3 12.1 SW 17.4 0.0 0.0
02:28 9.7 5.3 74 1004.4 15.2 W 17.4 0.0 0.0
02:29 9.6 5.2 74 1004.5 13.0 SW 17.4 0.0 0.0
02:30 9.6 5.2 74 1004.3 13.0 W 15.2 0.0 0.0
02:31 9.6 5.2 74 1004.4 9.2 WSW 15.2 0.0 0.0
02:32 9.6 5.2 74 1004.5 9.2 W 15.2 0.0 0.0
02:33 9.6 5.0 73 1004.4 11.4 SW 15.2 0.0 0.0
02:34 9.5 4.9 73 1004.5 9.8 SW 15.2 0.0 0.0
02:35 9.5 4.9 73 1004.5 7.6 SW 15.2 0.0 0.0
02:36 9.5 4.9 73 1004.2 7.6 SW 15.2 0.0 0.0
02:37 9.5 4.9 73 1004.5 11.4 W 15.2 0.0 0.0
02:38 9.5 4.9 73 1004.5 9.8 W 15.2 0.0 0.0
02:40 9.4 4.8 73 1004.5 9.8 W 13.0 0.0 0.0
02:41 9.3 4.7 73 1004.5 12.1 W 12.1 0.0 0.0
02:42 9.3 4.7 73 1004.7 12.1 W 12.1 0.0 0.0
02:43 9.3 4.7 73 1004.3 12.1 W 12.1 0.0 0.0
02:44 9.3 4.5 72 1004.5 9.2 W 12.1 0.0 0.0
02:45 9.2 4.4 72 1004.6 9.2 W 12.1 0.0 0.0
02:46 9.2 4.4 72 1004.6 9.2 W 12.1 0.0 0.0
02:47 9.2 4.4 72 1004.4 7.6 W 12.1 0.0 0.0
02:48 9.2 4.4 72 1004.6 6.0 W 12.1 0.0 0.0
02:49 9.1 4.3 72 1004.5 8.3 W 12.1 0.0 0.0
02:50 9.1 4.3 72 1004.5 8.3 W 12.1 0.0 0.0
02:51 9.1 4.3 72 1004.4 10.7 W 12.1 0.0 0.0
02:52 9.0 4.2 72 1004.5 9.2 SW 12.1 0.0 0.0
02:54 9.0 4.2 72 1004.4 10.7 S 10.7 0.0 0.0
02:55 9.0 4.2 72 1004.4 11.4 NW 11.4 0.0 0.0
02:56 9.0 4.2 72 1004.5 11.4 SW 11.4 0.0 0.0
02:57 9.0 4.2 72 1004.5 9.2 W 11.4 0.0 0.0
02:58 9.0 4.2 72 1004.5 14.5 NW 14.5 0.0 0.0
02:59 9.0 4.2 72 1004.6 9.2 SW 14.5 0.0 0.0
03:00 9.0 4.2 72 1004.4 9.8 SW 14.5 0.0 0.0
03:01 9.0 4.2 72 1004.4 9.8 SW 14.5 0.0 0.0
03:02 9.0 4.2 72 1004.7 9.8 SW 14.5 0.0 0.0
03:03 9.0 4.2 72 1004.7 9.8 SW 14.5 0.0 0.0
03:04 9.0 4.2 72 1004.4 9.8 SW 14.5 0.0 0.0
03:05 9.0 4.2 72 1004.3 9.8 SW 14.5 0.0 0.0
03:06 9.0 4.2 72 1004.6 9.8 SW 14.5 0.0 0.0
03:07 9.0 4.2 72 1004.7 10.7 NW 14.5 0.0 0.0
03:09 9.0 4.2 72 1004.5 10.7 W 10.7 0.0 0.0
03:10 9.0 4.2 72 1004.7 9.8 SW 10.7 0.0 0.0
03:11 9.0 4.2 72 1004.8 7.6 SW 10.7 0.0 0.0
03:12 9.0 4.2 72 1004.5 8.3 S 10.7 0.0 0.0
03:13 9.0 4.2 72 1004.6 13.0 W 13.0 0.0 0.0
03:14 9.0 4.2 72 1004.6 13.0 W 13.0 0.0 0.0
03:15 9.0 4.2 72 1004.5 9.8 S 13.0 0.0 0.0
03:16 9.0 4.2 72 1004.4 9.2 N 13.0 0.0 0.0
03:17 9.0 4.2 72 1004.5 9.8 SW 13.0 0.0 0.0
03:18 9.0 4.2 72 1004.6 11.4 SW 13.0 0.0 0.0
03:19 8.9 4.1 72 1004.5 9.8 W 13.0 0.0 0.0
03:20 8.9 4.1 72 1004.7 10.7 W 13.0 0.0 0.0
03:21 8.9 4.1 72 1004.5 10.7 S 13.0 0.0 0.0
03:23 8.9 4.1 72 1004.4 6.9 SSW 13.0 0.0 0.0
03:24 8.9 4.1 72 1004.6 9.8 W 11.4 0.0 0.0
03:25 8.8 4.0 72 1004.8 10.7 W 11.4 0.0 0.0
03:26 8.8 4.0 72 1004.8 10.7 SW 11.4 0.0 0.0
03:27 8.8 4.0 72 1004.7 12.1 W 12.1 0.0 0.0
03:28 8.8 4.0 72 1004.8 9.2 SW 12.1 0.0 0.0
03:29 8.8 4.0 72 1004.6 8.3 NW 12.1 0.0 0.0
03:30 8.8 4.0 72 1004.6 8.3 SW 12.1 0.0 0.0
03:31 8.8 4.0 72 1004.7 6.9 SW 12.1 0.0 0.0
03:32 8.7 3.9 72 1004.5 10.7 SW 12.1 0.0 0.0
03:33 8.7 3.9 72 1004.5 10.7 W 12.1 0.0 0.0
03:34 8.7 3.9 72 1004.7 9.8 SW 12.1 0.0 0.0
03:35 8.7 3.9 72 1004.6 7.6 SW 12.1 0.0 0.0
03:36 8.7 3.9 72 1004.8 6.9 SW 12.1 0.0 0.0
03:38 8.7 3.9 72 1004.6 9.2 W 10.7 0.0 0.0
03:39 8.7 3.9 72 1004.7 6.9 SW 10.7 0.0 0.0
03:40 8.7 3.9 72 1004.4 7.6 NE 10.7 0.0 0.0
03:41 8.7 3.9 72 1004.6 11.4 S 11.4 0.0 0.0
03:42 8.7 3.9 72 1004.6 15.2 NW 15.2 0.0 0.0
03:43 8.7 3.9 72 1004.7 15.2 NW 15.2 0.0 0.0
03:44 8.7 3.9 72 1004.6 9.8 NW 15.2 0.0 0.0
03:45 8.7 3.9 72 1004.6 9.2 S 15.2 0.0 0.0
03:46 8.7 3.9 72 1004.8 9.8 WNW 15.2 0.0 0.0
03:47 8.8 4.0 72 1004.5 9.8 SW 15.2 0.0 0.0
03:48 8.8 4.0 72 1004.8 9.2 SW 15.2 0.0 0.0
03:49 8.8 4.0 72 1004.5 9.2 W 15.2 0.0 0.0
03:50 8.8 4.0 72 1004.7 9.2 SW 15.2 0.0 0.0
03:52 8.8 4.0 72 1004.7 9.8 W 15.2 0.0 0.0
03:53 8.8 4.0 72 1004.4 6.0 NNE 15.2 0.0 0.0
03:54 8.9 4.1 72 1004.5 6.0 W 10.7 0.0 0.0
03:55 8.9 4.3 73 1004.3 7.6 SW 10.7 0.0 0.0
03:56 8.9 4.3 73 1004.7 7.6 NW 10.7 0.0 0.0
03:57 8.9 4.3 73 1004.4 7.6 SW 10.7 0.0 0.0
03:58 8.9 4.3 73 1004.4 9.2 NW 10.7 0.0 0.0
03:59 8.9 4.3 73 1004.4 8.3 SSW 10.7 0.0 0.0
04:00 9.0 4.4 73 1004.5 8.3 SW 10.7 0.0 0.0
04:01 9.0 4.4 73 1004.5 9.2 SW 10.7 0.0 0.0
04:02 9.0 4.4 73 1004.7 9.2 N 9.8 0.0 0.0
04:03 9.0 4.4 73 1004.5 11.4 SW 11.4 0.0 0.0
04:04 9.0 4.4 73 1004.4 14.5 SW 14.5 0.0 0.0
04:06 9.1 4.5 73 1004.5 7.6 SW 14.5 0.0 0.0
04:07 9.1 4.5 73 1004.7 8.3 W 14.5 0.0 0.0
04:08 9.1 4.5 73 1004.5 9.8 NW 14.5 0.0 0.0
04:09 9.1 4.5 73 1004.4 9.8 SW 14.5 0.0 0.0
04:10 9.1 4.5 73 1004.5 10.7 W 14.5 0.0 0.0
04:11 9.1 4.5 73 1004.7 12.1 S 14.5 0.0 0.0
04:12 9.2 4.6 73 1004.5 9.8 NW 14.5 0.0 0.0
04:13 9.2 4.6 73 1004.3 15.2 W 15.2 0.0 0.0
04:14 9.2 4.6 73 1004.6 12.1 SW 15.2 0.0 0.0
04:15 9.2 4.6 73 1004.7 14.5 SW 15.2 0.0 0.0
04:16 9.2 4.6 73 1004.4 13.0 W 15.2 0.0 0.0
04:17 9.2 4.6 73 1004.5 15.2 W 15.2 0.0 0.0
04:18 9.2 4.6 73 1004.6 15.2 SW 15.2 0.0 0.0
04:19 9.2 4.4 72 1004.4 13.6 N 15.2 0.0 0.0
04:21 9.3 4.5 72 1004.4 12.1 S 15.9 0.0 0.0
04:22 9.3 4.5 72 1004.4 13.0 N 15.9 0.0 0.0
04:23 9.3 4.5 72 1004.3 13.0 SW 15.9 0.0 0.0
04:24 9.3 4.3 71 1004.4 9.2 NW 15.9 0.0 0.0
04:25 9.3 4.3 71 1004.3 12.1 SW 15.9 0.0 0.0
04:26 9.3 4.3 71 1004.3 12.1 SW 15.9 0.0 0.0
04:27 9.3 4.3 71 1004.5 9.2 S 15.9 0.0 0.0
04:28 9.3 4.3 71 1004.4 9.2 SE 15.9 0.0 0.0
04:29 9.3 4.3 71 1004.4 13.0 W 15.9 0.0 0.0
04:30 9.3 4.3 71 1004.5 7.6 NW 15.9 0.0 0.0
04:31 9.3 4.3 71 1004.4 15.9 NE 15.9 0.0 0.0
04:32 9.3 4.3 71 1004.6 15.9 NW 15.9 0.0 0.0
04:34 9.3 4.3 71 1004.4 12.1 SW 15.9 0.0 0.0
04:35 9.3 4.3 71 1004.6 16.8 W 16.8 0.0 0.0
04:36 9.3 4.3 71 1004.6 15.2 SW 16.8 0.0 0.0
04:37 9.3 4.5 72 1004.5 13.0 SW 16.8 0.0 0.0
04:38 9.3 4.5 72 1004.6 11.4 W 16.8 0.0 0.0
04:39 9.3 4.5 72 1004.5 13.6 SW 16.8 0.0 0.0
04:40 9.3 4.5 72 1004.6 18.3 S 18.3 0.0 0.0
04:41 9.3 4.3 71 1004.5 13.0 W 18.3 0.0 0.0
04:42 9.3 4.3 71 1004.3 17.4 NW 18.3 0.0 0.0
04:43 9.3 4.3 71 1004.5 9.8 SW 18.3 0.0 0.0
04:44 9.3 4.3 71 1004.4 13.0 SE 18.3 0.0 0.0
04:45 9.3 4.3 71 1004.6 14.5 SW 18.3 0.0 0.0
04:46 9.2 4.2 71 1004.6 10.7 SW 18.3 0.0 0.0
04:47 9.2 4.2 71 1004.3 16.8 SW 18.3 0.0 0.0
04:49 9.2 4.2 71 1004.3 14.5 SW 18.3 0.0 0.0
04:50 9.2 4.0 70 1004.5 15.9 S 17.4 0.0 0.0
04:51 9.1 3.9 70 1004.5 10.7 S 17.4 0.0 0.0
04:52 9.1 3.9 70 1004.5 15.2 SW 16.8 0.0 0.0
04:53 9.1 3.9 70 1004.5 12.1 W 16.8 0.0 0.0
04:54 9.1 3.9 70 1004.5 12.1 W 16.8 0.0 0.0
04:55 9.1 3.9 70 1004.5 12.1 WSW 16.8 0.0 0.0
04:56 9.1 3.9 70 1004.4 14.5 W 16.8 0.0 0.0
04:57 9.1 3.9 70 1004.5 14.5 SW 16.8 0.0 0.0
04:58 9.0 3.8 70 1004.2 13.6 W 15.9 0.0 0.0
04:59 9.0 3.8 70 1004.4 19.0 S 19.0 0.0 0.0
05:00 9.0 3.8 70 1004.4 15.2 W 19.0 0.0 0.0
05:01 9.0 3.8 70 1004.6 15.2 W 19.0 0.0 0.0
05:03 9.0 3.8 70 1004.4 15.2 W 19.0 0.0 0.0
05:04 9.0 3.8 70 1004.6 15.2 W 19.0 0.0 0.0
05:05 9.0 3.8 70 1004.5 15.2 W 19.0 0.0 0.0
05:06 9.0 3.8 70 1004.6 15.2 W 19.0 0.0 0.0
05:07 9.0 3.8 70 1004.6 15.2 W 19.0 0.0 0.0
05:08 9.0 3.8 70 1004.5 15.2 W 19.0 0.0 0.0
05:09 8.8 3.2 68 1004.6 13.6 N 19.0 0.0 0.0
05:10 8.8 3.2 68 1004.5 13.6 SSW 15.2 0.0 0.0
05:11 8.7 2.9 67 1004.5 10.7 WNW 15.2 0.0 0.0
05:12 8.7 2.9 67 1004.7 10.7 SW 15.2 0.0 0.0
05:13 8.7 2.9 67 1004.6 13.0 SW 15.2 0.0 0.0
05:14 8.7 2.9 67 1004.6 11.4 E 15.2 0.0 0.0
05:15 8.6 2.8 67 1004.5 7.6 SW 15.2 0.0 0.0
05:17 8.6 3.0 68 1004.5 9.8 SW 15.2 0.0 0.0
05:18 8.6 3.2 69 1004.7 10.7 S 13.6 0.0 0.0
05:19 8.6 3.2 69 1004.4 9.8 SW 13.6 0.0 0.0
05:20 8.6 3.2 69 1004.5 9.8 W 13.0 0.0 0.0
05:21 8.6 3.4 70 1004.8 15.9 W 15.9 0.0 0.0
05:22 8.6 3.4 70 1004.7 13.6 S 15.9 0.0 0.0
05:23 8.6 3.4 70 1004.5 11.4 SW 15.9 0.0 0.0
05:24 8.6 3.4 70 1004.5 17.4 W 17.4 0.0 0.0
05:25 8.6 3.2 69 1004.6 13.0 SW 17.4 0.0 0.0
05:26 8.6 3.2 69 1004.6 11.4 SW 17.4 0.0 0.0
05:27 8.6 3.0 68 1004.6 13.0 W 17.4 0.0 0.0
05:28 8.6 3.0 68 1004.7 13.0 NW 17.4 0.0 0.0
05:29 8.6 3.0 68 1004.6 11.4 NW 17.4 0.0 0.0
05:31 8.5 2.7 67 1004.7 10.7 NE 17.4 0.0 0.0
05:32 8.5 2.7 67 1004.4 10.7 NE 17.4 0.0 0.0
05:33 8.5 2.7 67 1004.8 10.7 W 17.4 0.0 0.0
05:34 8.5 2.7 67 1004.7 10.7 SW 14.5 0.0 0.0
05:35 8.5 2.7 67 1004.5 9.8 SW 14.5 0.0 0.0
05:36 8.5 2.7 67 1004.7 10.7 SW 14.5 0.0 0.0
05:37 8.5 2.7 67 1004.5 13.6 SW 14.5 0.0 0.0
05:38 8.4 2.6 67 1004.7 13.0 W 14.5 0.0 0.0
05:39 8.4 2.6 67 1004.6 10.7 S 14.5 0.0 0.0
05:40 8.4 2.8 68 1004.5 9.2 SW 14.5 0.0 0.0
05:41 8.4 2.8 68 1004.7 11.4 SW 13.6 0.0 0.0
05:42 8.4 2.8 68 1004.5 10.7 W 13.6 0.0 0.0
05:43 8.4 3.0 69 1004.6 11.4 SW 13.6 0.0 0.0
05:45 8.5 3.3 70 1004.5 11.4 S 13.6 0.0 0.0
05:46 8.5 3.3 70 1004.8 8.3 NNE 13.6 0.0 0.0
05:47 8.5 3.3 70 1004.7 8.3 S 13.6 0.0 0.0
05:48 8.5 3.3 70 1004.8 6.9 N 13.6 0.0 0.0
05:49 8.5 3.3 70 1004.6 6.9 SE 13.6 0.0 0.0
05:50 8.5 3.3 70 1004.7 9.8 SW 13.6 0.0 0.0
05:51 8.5 3.3 70 1004.6 10.7 SW 13.6 0.0 0.0
05:52 8.5 3.3 70 1004.8 11.4 SW 13.6 0.0 0.0
05:53 8.5 3.3 70 1004.6 11.4 S 13.6 0.0 0.0
05:54 8.5 3.3 70 1004.6 11.4 NW 13.6 0.0 0.0
05:55 8.5 3.3 70 1004.4 10.7 SW 12.1 0.0 0.0
05:56 8.5 3.3 70 1004.6 10.7 SW 12.1 0.0 0.0
05:57 8.5 3.3 70 1004.6 7.6 SW 12.1 0.0 0.0
05:59 8.6 3.4 70 1004.8 9.2 SW 13.0 0.0 0.0
06:00 8.6 3.4 70 1004.7 8.3 SW 13.0 0.0 0.0
06:01 8.6 3.4 70 1004.6 9.8 W 13.0 0.0 0.0
06:02 8.6 3.4 70 1004.8 10.7 SW 13.0 0.0 0.0
06:03 8.7 3.5 70 1004.6 12.1 SW 13.0 0.0 0.0
06:04 8.7 3.5 70 1004.9 7.6 SW 13.0 0.0 0.0
06:05 8.7 3.5 70 1004.7 4.5 W 13.0 0.0 0.0
06:06 8.7 3.5 70 1004.8 8.3 W 13.0 0.0 0.0
06:07 8.7 3.5 70 1004.7 9.2 S 13.0 0.0 0.0
06:08 8.7 3.5 70 1004.7 10.7 WNW 13.0 0.0 0.0
06:09 8.7 3.5 70 1004.8 13.6 SW 13.6 0.0 0.0
06:10 8.7 3.5 70 1004.7 15.9 SW 15.9 0.0 0.0
06:11 8.8 3.6 70 1004.8 14.5 E 15.9 0.0 0.0
06:13 8.8 3.6 70 1004.8 12.1 S 15.9 0.0 0.0
06:14 8.8 3.6 70 1004.8 10.7 N 15.9 0.0 0.0
06:15 8.8 3.6 70 1004.9 10.7 SW 15.9 0.0 0.0
06:16 8.8 3.6 70 1004.8 15.2 NE 15.9 0.0 0.0
06:17 8.8 3.6 70 1004.8 9.2 NE 15.9 0.0 0.0
06:18 8.8 3.6 70 1004.8 14.5 S 15.9 0.0 0.0
06:19 8.8 3.6 70 1004.8 13.6 WNW 15.9 0.0 0.0
06:20 8.8 3.6 70 1004.7 14.5 SW 15.2 0.0 0.0
06:21 8.9 3.5 69 1004.8 11.4 W 15.2 0.0 0.0
06:22 8.9 3.5 69 1004.8 12.1 SW 15.2 0.0 0.0
06:23 8.9 3.3 68 1004.8 9.8 S 15.2 0.0 0.0
06:24 8.9 3.3 68 1004.7 8.3 W 15.2 0.0 0.0
06:25 8.9 3.3 68 1004.9 7.6 W 15.2 0.0 0.0
06:27 8.9 3.3 68 1004.9 6.9 SW 14.5 0.0 0.0
06:28 8.9 3.3 68 1004.8 8.3 SSW 14.5 0.0 0.0
06:29 8.9 3.3 68 1004.9 5.4 SW 14.5 0.0 0.0
06:30 8.8 3.2 68 1004.8 6.9 SE 12.1 0.0 0.0
06:31 8.8 3.2 68 1004.8 8.3 SW 12.1 0.0 0.0
06:32 8.8 3.2 68 1004.9 8.3 W 12.1 0.0 0.0
06:33 8.8 3.2 68 1004.9 9.2 NW 9.8 0.0 0.0
06:34 8.8 3.2 68 1004.9 11.4 S 11.4 0.0 0.0
06:35 8.8 3.2 68 1005.0 7.6 SW 11.4 0.0 0.0
06:36 8.8 3.2 68 1005.0 8.3 SW 11.4 0.0 0.0
06:37 8.8 3.4 69 1004.9 7.6 W 11.4 0.0 0.0
06:38 8.8 3.4 69 1005.0 11.4 SW 11.4 0.0 0.0
06:39 8.8 3.4 69 1005.1 9.2 S 12.1 0.0 0.0
06:41 8.8 3.6 70 1005.0 11.4 SW 14.5 0.0 0.0
06:42 8.8 3.6 70 1005.0 13.0 S 14.5 0.0 0.0
06:43 8.8 3.6 70 1004.9 13.0 W 14.5 0.0 0.0
06:44 8.8 3.6 70 1005.0 8.3 SW 14.5 0.0 0.0
06:45 8.8 3.6 70 1004.9 11.4 SW 14.5 0.0 0.0
06:46 8.8 3.6 70 1005.1 9.8 SW 14.5 0.0 0.0
06:47 8.8 3.6 70 1005.2 9.8 W 14.5 0.0 0.0
06:48 8.8 3.6 70 1005.0 9.2 W 14.5 0.0 0.0
06:49 8.8 3.6 70 1005.0 9.2 SW 14.5 0.0 0.0
06:50 8.8 3.6 70 1004.9 8.3 S 14.5 0.0 0.0
06:51 8.8 3.6 70 1005.0 13.6 W 13.6 0.0 0.0
06:52 8.8 3.6 70 1005.2 17.4 N 17.4 0.0 0.0
06:53 8.8 3.6 70 1005.1 11.4 SW 17.4 0.0 0.0
06:55 8.8 3.4 69 1004.8 12.1 SW 17.4 0.0 0.0
06:56 8.8 3.4 69 1005.0 8.3 SW 17.4 0.0 0.0
06:57 8.8 3.4 69 1005.1 9.8 WSW 17.4 0.0 0.0
06:58 8.8 3.4 69 1005.0 11.4 SW 17.4 0.0 0.0
06:59 8.8 3.4 69 1005.0 10.7 S 17.4 0.0 0.0
07:00 8.9 3.5 69 1005.2 10.7 SW 17.4 0.0 0.0
07:01 8.9 3.5 69 1004.9 10.7 SW 17.4 0.0 0.0
07:02 8.9 3.5 69 1005.0 10.7 SW 17.4 0.0 0.0
07:03 8.9 3.5 69 1005.2 10.7 SW 17.4 0.0 0.0
07:04 8.9 3.5 69 1004.8 10.7 SW 17.4 0.0 0.0
07:05 8.9 3.5 69 1004.9 10.7 SW 12.1 0.0 0.0
07:06 8.9 3.7 70 1005.0 12.1 S 12.1 0.0 0.0
07:07 8.9 3.7 70 1004.9 11.4 SW 12.1 0.0 0.0
07:09 9.0 3.8 70 1005.0 12.1 S 12.1 0.0 0.0
07:10 9.0 3.8 70 1004.8 13.0 W 13.0 0.0 0.0
07:11 9.0 3.8 70 1005.0 13.0 W 13.0 0.0 0.0
07:12 9.1 3.9 70 1005.0 15.2 SW 15.2 0.0 0.0
07:13 9.1 3.9 70 1005.1 10.7 S 15.2 0.0 0.0
07:14 9.2 4.0 70 1005.3 10.7 SW 15.2 0.0 0.0
07:15 9.2 4.0 70 1005.0 11.4 S 15.2 0.0 0.0
07:16 9.2 4.0 70 1004.9 10.7 N 15.2 0.0 0.0
07:17 9.2 4.0 70 1004.9 11.4 SW 15.2 0.0 0.0
07:18 9.2 4.0 70 1004.9 13.6 SSW 15.2 0.0 0.0
07:19 9.3 4.1 70 1005.2 9.8 SW 15.2 0.0 0.0
07:20 9.3 4.1 70 1005.0 12.1 NW 15.2 0.0 0.0
07:21 9.3 4.1 70 1005.1 12.1 NW 15.2 0.0 0.0
07:22 9.3 3.9 69 1005.2 11.4 W 15.2 0.0 0.0
07:24 9.3 3.9 69 1005.1 6.0 SW 13.6 0.0 0.0
07:25 9.3 3.9 69 1005.3 9.2 SE 13.6 0.0 0.0
07:26 9.3 3.9 69 1005.1 13.0 SW 13.6 0.0 0.0
07:27 9.3 3.9 69 1005.0 13.6 N 13.6 0.0 0.0
07:28 9.3 3.9 69 1005.1 9.8 SE 13.6 0.0 0.0
07:29 9.4 4.0 69 1005.1 8.3 S 13.6 0.0 0.0
07:30 9.4 4.0 69 1005.1 8.3 S 13.6 0.0 0.0
07:31 9.4 4.2 70 1005.0 9.8 WSW 13.6 0.0 0.0
07:32 9.5 4.3 70 1004.9 9.2 W 13.6 0.0 0.0
07:33 9.5 4.3 70 1005.2 7.6 S 13.6 0.0 0.0
07:34 9.5 4.3 70 1005.1 9.2 S 13.6 0.0 0.0
07:35 9.6 4.4 70 1005.1 8.3 SW 13.6 0.0 0.0
07:36 9.6 4.4 70 1005.2 8.3 SW 13.6 0.0 0.0
07:38 9.7 4.5 70 1005.2 11.4 S 13.6 0.0 0.0
07:39 9.7 4.5 70 1005.2 10.7 SW 13.6 0.0 0.0
07:40 9.7 4.5 70 1005.0 10.7 SW 13.6 0.0 0.0
07:41 9.7 4.5 70 1004.9 11.4 E 13.6 0.0 0.0
07:42 9.7 4.5 70 1005.0 11.4 SW 13.6 0.0 0.0
07:43 9.7 4.3 69 1005.3 13.0 WSW 13.6 0.0 0.0
07:44 9.6 4.2 69 1005.2 13.6 W 13.6 0.0 0.0
07:45 9.6 4.2 69 1005.0 15.2 SW 15.2 0.0 0.0
07:46 9.6 4.0 68 1005.2 15.2 S 15.2 0.0 0.0
07:47 9.6 4.0 68 1005.2 15.2 W 15.2 0.0 0.0
07:48 9.5 3.9 68 1005.1 12.1 NW 15.2 0.0 0.0
07:49 9.5 3.7 67 1005.3 7.6 SW 15.2 0.0 0.0
07:50 9.5 3.7 67 1005.2 10.7 SW 15.2 0.0 0.0
07:51 9.5 3.7 67 1004.9 9.8 S 15.2 0.0 0.0
07:53 9.6 4.0 68 1005.2 8.3 W 15.2 0.0 0.0
07:54 9.7 4.1 68 1004.9 13.6 S 15.2 0.0 0.0
07:55 9.7 4.3 69 1005.1 13.6 SW 15.2 0.0 0.0
07:56 9.8 4.4 69 1005.2 9.2 WSW 15.2 0.0 0.0
07:57 9.9 4.7 70 1005.1 11.4 S 13.6 0.0 0.0
07:58 9.9 4.7 70 1005.0 9.2 S 13.6 0.0 0.0
07:59 10.0 4.8 70 1004.9 13.0 SW 13.6 0.0 0.0
08:00 10.0 4.8 70 1005.2 13.6 S 13.6 0.0 0.0
08:01 10.0 4.8 70 1004.9 13.6 S 13.6 0.0 0.0
08:02 10.0 4.8 70 1005.0 13.6 S 13.6 0.0 0.0
08:03 10.0 4.6 69 1005.2 13.6 N 13.6 0.0 0.0
08:04 10.0 4.4 68 1005.0 13.6 S 13.6 0.0 0.0
08:05 10.0 4.4 68 1005.2 13.6 W 13.6 0.0 0.0
08:06 10.1 4.5 68 1005.0 15.2 W 15.2 0.0 0.0
08:08 10.1 4.3 67 1004.9 15.2 S 15.2 0.0 0.0
08:09 10.1 4.3 67 1005.1 19.0 SW 19.7 0.0 0.0
08:10 10.1 4.0 66 1005.0 15.9 S 19.7 0.0 0.0
08:11 10.2 4.1 66 1005.1 13.6 SW 19.7 0.0 0.0
08:12 10.2 4.1 66 1005.0 9.2 NW 19.7 0.0 0.0
08:13 10.2 4.1 66 1005.2 11.4 SW 19.7 0.0 0.0
08:14 10.2 4.1 66 1005.2 11.4 SW 19.7 0.0 0.0
08:15 10.3 4.2 66 1005.3 14.5 N 19.7 0.0 0.0
08:16 10.3 4.2 66 1005.4 16.8 S 19.7 0.0 0.0
08:17 10.2 4.1 66 1005.2 16.8 SW 19.7 0.0 0.0
08:18 10.2 4.1 66 1005.4 16.8 SW 19.7 0.0 0.0
08:19 10.1 4.0 66 1005.4 13.6 SE 19.7 0.0 0.0
08:20 10.1 4.0 66 1005.2 7.6 SE 17.4 0.0 0.0
08:21 10.1 4.0 66 1005.1 7.6 SE 17.4 0.0 0.0
08:23 9.8 4.2 68 1005.1 9.2 SW 17.4 0.0 0.0
08:24 9.8 4.4 69 1005.1 10.7 SW 17.4 0.0 0.0
08:25 9.7 4.3 69 1005.0 9.8 SSW 17.4 0.0 0.0
08:26 9.7 4.3 69 1005.0 9.8 SSW 17.4 0.0 0.0
08:27 9.6 4.4 70 1005.1 13.0 SW 17.4 0.0 0.0
08:28 9.6 4.4 70 1005.2 13.0 SW 17.4 0.0 0.0
08:29 9.6 4.4 70 1005.1 13.0 SW 13.6 0.0 0.0
08:30 9.6 4.4 70 1005.2 6.0 W 13.0 0.0 0.0
08:31 9.6 4.6 71 1005.2 10.7 W 13.0 0.0 0.0
08:32 9.6 4.6 71 1005.2 11.4 W 13.0 0.0 0.0
08:33 9.6 4.6 71 1005.3 13.6 E 13.6 0.0 0.0
08:34 9.6 4.6 71 1005.3 13.6 E 13.6 0.0 0.0
08:35 9.6 4.6 71 1005.1 13.6 W 13.6 0.0 0.0
08:37 9.6 4.6 71 1005.2 9.8 S 13.6 0.0 0.0
08:38 9.7 4.7 71 1005.2 6.9 N 13.6 0.0 0.0
08:39 9.8 4.8 71 1004.9 14.5 NW 14.5 0.0 0.0
08:40 9.8 4.8 71 1005.1 14.5 W 14.5 0.0 0.0
08:41 9.8 4.8 71 1005.1 11.4 WNW 14.5 0.0 0.0
08:42 10.0 5.0 71 1004.9 14.5 SW 14.5 0.0 0.0
08:43 10.0 5.0 71 1005.2 13.0 NW 14.5 0.0 0.0
08:44 10.1 5.1 71 1004.9 10.7 SW 14.5 0.0 0.0
08:45 10.1 5.1 71 1004.9 9.2 S 14.5 0.0 0.0
08:46 10.2 5.2 71 1004.9 9.2 SW 14.5 0.0 0.0
08:47 10.2 5.2 71 1005.1 15.2 SW 15.2 0.0 0.0
08:48 10.2 5.2 71 1005.0 15.2 SW 15.2 0.0 0.0
08:49 10.3 5.3 71 1005.2 15.2 S 15.2 0.0 0.0
08:50 10.3 5.3 71 1005.2 11.4 W 15.2 0.0 0.0
08:51 10.3 5.1 70 1004.7 14.5 SW 15.2 0.0 0.0
08:53 10.3 5.1 70 1005.0 19.0 SW 19.0 0.0 0.0
08:54 10.3 5.1 70 1005.2 22.1 SE 22.1 0.0 0.0
08:55 10.3 5.1 70 1005.0 19.0 S 22.1 0.0 0.0
08:56 10.3 5.1 70 1004.9 19.0 S 22.1 0.0 0.0
08:57 10.3 5.1 70 1005.0 12.1 SW 22.1 0.0 0.0
08:58 10.3 5.1 70 1005.0 12.1 SW 22.1 0.0 0.0
08:59 10.4 5.2 70 1005.1 9.2 NW 22.1 0.0 0.0
09:00 10.5 5.3 70 1005.1 11.4 SW 22.1 0.0 0.0
09:01 10.5 5.3 70 1004.9 11.4 SW 22.1 0.0 0.0
09:02 10.5 5.3 70 1004.9 11.4 SW 22.1 0.0 0.0
09:03 10.8 5.6 70 1004.9 13.6 W 22.1 0.0 0.0
09:04 10.8 5.6 70 1004.9 13.6 W 22.1 0.0 0.0
09:05 11.0 5.7 70 1004.9 19.7 S 19.7 0.0 0.0
09:07 11.0 5.5 69 1005.2 16.8 SW 19.7 0.0 0.0
09:08 11.0 5.3 68 1005.0 13.6 W 19.7 0.0 0.0
09:09 11.0 5.1 67 1005.2 19.7 SW 19.7 0.0 0.0
09:10 10.9 5.0 67 1005.2 19.7 W 19.7 0.0 0.0
09:11 10.9 4.8 66 1005.1 13.0 NW 19.7 0.0 0.0
09:12 10.9 4.8 66 1005.2 17.4 SW 19.7 0.0 0.0
09:13 10.8 4.7 66 1005.3 15.9 SW 19.7 0.0 0.0
09:14 10.8 4.7 66 1005.3 15.9 SW 19.7 0.0 0.0
09:15 10.7 4.2 64 1005.1 13.0 W 19.7 0.0 0.0
09:16 10.7 4.2 64 1005.2 13.0 N 19.7 0.0 0.0
09:17 10.7 4.2 64 1005.1 18.3 SW 19.7 0.0 0.0
09:18 10.7 4.4 65 1005.3 20.6 SW 20.6 0.0 0.0
09:19 10.7 4.4 65 1004.8 17.4 SW 20.6 0.0 0.0
09:20 10.6 4.3 65 1005.3 13.6 SW 20.6 0.0 0.0
09:21 10.6 4.3 65 1005.3 15.9 S 20.6 0.0 0.0
09:23 10.6 4.3 65 1005.2 8.3 SW 20.6 0.0 0.0
09:24 10.7 4.4 65 1005.0 8.3 S 20.6 0.0 0.0
09:25 10.8 4.7 66 1005.1 18.3 SW 20.6 0.0 0.0
09:26 10.9 5.0 67 1005.4 13.6 SW 20.6 0.0 0.0
09:27 10.9 5.0 67 1005.2 14.5 S 20.6 0.0 0.0
09:28 11.0 4.9 66 1005.1 17.4 SW 18.3 0.0 0.0
09:29 11.0 4.9 66 1005.1 17.4 SW 18.3 0.0 0.0
09:30 11.1 5.0 66 1005.1 13.0 W 18.3 0.0 0.0
09:31 11.2 5.1 66 1005.1 17.4 SW 18.3 0.0 0.0
09:32 11.2 5.1 66 1005.2 17.4 W 18.3 0.0 0.0
09:33 11.2 5.1 66 1005.0 17.4 W 18.3 0.0 0.0
09:34 11.2 4.9 65 1005.4 17.4 SW 18.3 0.0 0.0
09:35 11.2 4.9 65 1005.3 14.5 SW 18.3 0.0 0.0
09:37 11.3 5.0 65 1005.3 19.7 W 19.7 0.0 0.0
09:38 11.3 4.7 64 1005.2 23.5 SW 23.5 0.0 0.0
09:39 11.3 4.7 64 1005.4 18.3 WSW 23.5 0.0 0.0
09:40 11.3 4.7 64 1005.3 15.2 SW 23.5 0.0 0.0
09:41 11.3 4.7 64 1005.4 10.7 S 23.5 0.0 0.0
09:42 11.3 4.7 64 1005.2 10.7 W 23.5 0.0 0.0
09:43 11.3 5.0 65 1005.3 20.6 SW 23.5 0.0 0.0
09:44 11.4 5.1 65 1005.1 15.2 SSW 23.5 0.0 0.0
09:45 11.4 5.1 65 1005.3 16.8 WSW 23.5 0.0 0.0
09:46 11.4 5.1 65 1005.3 16.8 S 23.5 0.0 0.0
09:47 11.3 5.0 65 1005.2 15.9 NW 23.5 0.0 0.0
09:48 11.3 5.0 65 1005.2 12.1 SE 23.5 0.0 0.0
09:49 11.3 5.0 65 1005.0 13.0 W 20.6 0.0 0.0
09:51 11.3 5.2 66 1005.2 9.8 NW 20.6 0.0 0.0
09:52 11.3 5.2 66 1005.2 15.9 W 20.6 0.0 0.0
09:53 11.3 5.2 66 1005.2 15.9 W 20.6 0.0 0.0
09:54 11.2 5.1 66 1005.3 10.7 SW 19.7 0.0 0.0
09:55 11.2 5.1 66 1005.4 13.0 SW 19.7 0.0 0.0
09:56 11.2 5.1 66 1005.3 12.1 NE 19.7 0.0 0.0
09:57 11.2 5.1 66 1005.3 12.1 W 18.3 0.0 0.0
09:58 11.3 5.2 66 1004.9 10.7 SW 18.3 0.0 0.0
09:59 11.3 5.2 66 1005.2 16.8 W 18.3 0.0 0.0
10:00 11.3 5.2 66 1005.3 12.1 SW 18.3 0.0 0.0
10:01 11.3 5.2 66 1005.0 12.1 SW 18.3 0.0 0.0
10:02 11.3 5.2 66 1005.4 12.1 SW 18.3 0.0 0.0
10:03 11.3 5.2 66 1005.1 12.1 SW 18.3 0.0 0.0
10:04 11.3 5.2 66 1005.3 12.1 SW 18.3 0.0 0.0
10:06 11.1 4.6 64 1005.3 13.6 N 22.8 0.0 0.0
10:07 11.1 4.6 64 1005.2 13.0 SW 22.8 0.0 0.0
10:08 11.2 4.6 64 1005.3 16.8 S 22.8 0.0 0.0
10:09 11.3 4.7 64 1005.3 19.0 SW 22.8 0.0 0.0
10:10 11.3 4.7 64 1005.0 19.0 SW 22.8 0.0 0.0
10:11 11.4 5.1 65 1005.3 15.9 WSW 22.8 0.0 0.0
10:12 11.5 5.2 65 1005.2 17.4 SW 22.8 0.0 0.0
10:13 11.6 5.2 65 1005.1 17.4 S 22.8 0.0 0.0
10:14 11.6 5.2 65 1005.1 12.1 SW 22.8 0.0 0.0
10:15 11.7 5.6 66 1005.1 13.0 S 22.8 0.0 0.0
10:16 11.7 5.6 66 1005.2 13.0 S 19.0 0.0 0.0
10:17 11.7 5.6 66 1005.0 16.8 SSW 19.0 0.0 0.0
10:18 11.8 5.7 66 1005.1 15.9 S 19.0 0.0 0.0
10:19 11.9 5.8 66 1005.1 16.8 NNW 19.0 0.0 0.0
10:21 11.9 5.8 66 1005.1 18.3 NW 19.7 0.0 0.0
10:22 11.9 5.8 66 1005.3 18.3 W 19.7 0.0 0.0
10:23 12.0 5.6 65 1005.2 18.3 W 19.7 0.0 0.0
10:24 12.0 5.6 65 1005.1 17.4 SW 19.7 0.0 0.0
10:25 12.1 5.7 65 1005.1 15.9 SW 19.7 0.0 0.0
10:26 12.1 5.7 65 1005.1 15.9 SW 19.7 0.0 0.0
10:27 12.2 5.8 65 1004.9 21.3 SW 21.3 0.0 0.0
10:28 12.2 5.8 65 1005.2 21.3 SW 21.3 0.0 0.0
10:29 12.2 5.6 64 1005.2 19.0 W 21.3 0.0 0.0
10:30 12.2 5.6 64 1004.9 19.7 SW 21.3 0.0 0.0
10:31 12.1 5.3 63 1005.0 21.3 W 21.3 0.0 0.0
10:32 12.1 5.3 63 1005.1 16.8 NW 21.3 0.0 0.0
10:33 12.1 5.3 63 1005.2 14.5 S 21.3 0.0 0.0
10:34 12.2 5.6 64 1005.1 16.8 SW 21.3 0.0 0.0
10:36 12.2 5.4 63 1005.0 14.5 S 21.3 0.0 0.0
10:37 12.2 5.4 63 1004.9 15.9 W 21.3 0.0 0.0
10:38 12.2 5.4 63 1005.1 20.6 SW 21.3 0.0 0.0
10:39 12.2 5.4 63 1004.9 20.6 W 21.3 0.0 0.0
10:40 12.2 5.4 63 1005.2 21.3 SW 21.3 0.0 0.0
10:41 12.2 5.4 63 1005.3 18.3 NW 21.3 0.0 0.0
10:42 12.2 5.4 63 1005.3 18.3 NW 21.3 0.0 0.0
10:43 12.1 5.0 62 1005.3 16.8 S 21.3 0.0 0.0
10:44 12.1 5.0 62 1005.2 16.8 SW 21.3 0.0 0.0
10:45 12.2 5.1 62 1005.1 15.9 S 21.3 0.0 0.0
10:46 12.2 5.1 62 1005.1 17.4 SW 21.3 0.0 0.0
10:47 12.2 5.1 62 1005.0 19.7 SW 21.3 0.0 0.0
10:48 12.2 5.4 63 1005.0 19.7 SW 21.3 0.0 0.0
10:49 12.2 5.4 63 1005.1 15.9 N 21.3 0.0 0.0
10:50 12.2 5.6 64 1005.1 18.3 S 21.3 0.0 0.0
10:51 12.2 5.6 64 1005.2 18.3 S 20.6 0.0 0.0
10:52 12.2 5.6 64 1005.2 17.4 W 20.6 0.0 0.0
10:53 12.2 5.6 64 1005.2 17.4 S 20.6 0.0 0.0
10:54 12.2 5.6 64 1005.1 17.4 S 20.6 0.0 0.0
10:55 12.4 6.0 65 1005.0 16.8 SW 20.6 0.0 0.0
10:57 12.5 5.4 62 1004.9 20.6 S 20.6 0.0 0.0
10:58 12.5 5.2 61 1005.0 21.3 SW 21.3 0.0 0.0
10:59 12.5 5.2 61 1005.2 17.4 NW 21.3 0.0 0.0
11:00 12.4 5.8 64 1004.9 17.4 W 21.3 0.0 0.0
11:01 12.4 5.8 64 1005.2 17.4 W 21.3 0.0 0.0
11:02 12.4 5.8 64 1005.3 17.4 W 21.3 0.0 0.0
11:03 12.4 5.8 64 1005.1 17.4 W 21.3 0.0 0.0
11:04 12.4 5.8 64 1004.8 17.4 W 21.3 0.0 0.0
11:05 12.4 5.8 64 1005.2 17.4 W 21.3 0.0 0.0
11:06 12.3 5.7 64 1005.2 20.6 S 21.3 0.0 0.0
11:07 12.2 5.6 64 1004.7 16.8 NW 21.3 0.0 0.0
11:08 12.2 5.6 64 1005.0 14.5 W 21.3 0.0 0.0
11:09 12.2 5.8 65 1004.9 15.2 SW 20.6 0.0 0.0
11:10 12.3 5.9 65 1004.9 19.0 SW 20.6 0.0 0.0
11:12 12.3 5.7 64 1005.1 19.0 S 20.6 0.0 0.0
11:13 12.4 6.0 65 1005.1 19.0 S 20.6 0.0 0.0
11:14 12.5 5.4 62 1005.1 18.3 E 20.6 0.0 0.0
11:15 12.6 5.5 62 1005.0 18.3 SW 20.6 0.0 0.0
11:17 12.7 5.6 62 1005.0 15.2 NW 19.0 0.0 0.0
11:18 12.8 5.7 62 1005.2 16.8 NW 19.0 0.0 0.0
11:19 13.0 5.9 62 1005.1 16.8 S 19.0 0.0 0.0
11:20 13.0 5.7 61 1004.9 16.8 SW 19.0 0.0 0.0
11:21 13.0 5.7 61 1005.0 16.8 SW 19.0 0.0 0.0
11:22 13.0 5.7 61 1005.0 10.7 SE 19.0 0.0 0.0
11:23 13.1 5.8 61 1005.1 16.8 S 19.0 0.0 0.0
11:24 13.1 5.8 61 1005.1 16.8 S 18.3 0.0 0.0
11:26 13.1 5.8 61 1005.1 11.4 SW 16.8 0.0 0.0
11:27 13.0 5.7 61 1005.0 15.9 S 16.8 0.0 0.0
11:28 12.9 5.6 61 1005.0 24.4 NW 24.4 0.0 0.0
11:29 12.7 5.4 61 1005.2 15.9 W 24.4 0.0 0.0
11:30 12.7 5.4 61 1005.1 19.7 NW 24.4 0.0 0.0
11:31 12.6 5.3 61 1004.9 19.7 E 24.4 0.0 0.0
11:32 12.6 5.3 61 1005.1 15.2 S 24.4 0.0 0.0
11:33 12.7 5.4 61 1005.2 14.5 SSE 24.4 0.0 0.0
11:34 12.7 5.6 62 1005.0 14.5 S 24.4 0.0 0.0
11:35 12.8 5.5 61 1005.0 15.9 SW 24.4 0.0 0.0
11:36 12.8 5.5 61 1005.4 18.3 W 24.4 0.0 0.0
11:37 12.8 5.5 61 1005.1 18.3 W 24.4 0.0 0.0
11:39 12.7 5.1 60 1005.2 14.5 SW 19.7 0.0 0.0
11:40 12.7 5.4 61 1005.3 19.0 S 19.7 0.0 0.0
11:41 12.6 5.3 61 1005.2 19.7 NW 19.7 0.0 0.0
11:42 12.6 5.3 61 1005.2 16.8 W 19.7 0.0 0.0
11:43 12.5 5.2 61 1005.3 17.4 SW 19.7 0.0 0.0
11:44 12.5 5.2 61 1005.2 17.4 SW 19.7 0.0 0.0
11:45 12.5 5.2 61 1005.3 17.4 SW 19.7 0.0 0.0
11:46 12.5 5.4 62 1005.4 11.4 S 19.7 0.0 0.0
11:47 12.6 5.5 62 1005.3 15.9 SW 19.7 0.0 0.0
11:48 12.6 5.5 62 1005.1 15.9 SW 19.7 0.0 0.0
11:49 12.6 5.5 62 1005.4 18.3 W 19.7 0.0 0.0
11:50 12.5 5.4 62 1005.3 18.3 S 19.7 0.0 0.0
11:51 12.5 5.4 62 1005.2 18.3 SW 19.7 0.0 0.0
11:52 12.4 6.0 65 1005.4 19.0 SW 19.0 0.0 0.0
11:54 12.4 6.2 66 1005.3 15.9 W 19.0 0.0 0.0
11:55 12.3 6.4 67 1005.3 13.0 S 19.0 0.0 0.0
11:56 12.3 6.4 67 1005.3 16.8 SW 19.0 0.0 0.0
11:57 12.3 6.4 67 1005.3 16.8 SW 19.0 0.0 0.0
11:58 12.3 6.4 67 1005.3 16.8 SW 19.0 0.0 0.0
11:59 12.4 6.7 68 1005.4 22.8 SE 22.8 0.0 0.0
12:00 12.5 5.9 64 1005.3 22.8 S 22.8 0.0 0.0
12:01 12.5 5.9 64 1005.2 22.8 S 22.8 0.0 0.0
12:02 12.5 5.9 64 1005.0 22.8 S 22.8 0.0 0.0
12:03 12.6 5.7 63 1005.1 19.0 SSW 22.8 0.0 0.0
12:04 12.7 5.8 63 1005.4 13.0 SW 22.8 0.0 0.0
12:05 12.7 5.8 63 1005.2 10.7 SW 22.8 0.0 0.0
12:06 12.7 5.8 63 1005.0 10.7 SW 22.8 0.0 0.0
12:07 12.7 6.1 64 1005.2 16.8 SE 22.8 0.0 0.0
12:09 12.9 6.3 64 1005.2 14.5 S 22.8 0.0 0.0
12:10 12.9 6.3 64 1005.4 24.4 SE 24.4 0.0 0.0
12:11 12.9 6.3 64 1005.1 24.4 SE 24.4 0.0 0.0
12:12 12.9 6.3 64 1005.1 24.4 SE 24.4 0.0 0.0
12:13 12.8 5.9 63 1005.3 16.8 SW 24.4 0.0 0.0
12:14 12.8 5.9 63 1005.3 16.8 SW 24.4 0.0 0.0
12:15 12.8 5.9 63 1005.3 15.2 SW 24.4 0.0 0.0
12:16 12.8 5.9 63 1005.2 12.1 S 24.4 0.0 0.0
12:17 12.8 5.9 63 1005.2 18.3 SW 24.4 0.0 0.0
12:18 12.7 5.8 63 1005.2 18.3 SW 24.4 0.0 0.0
12:19 12.7 5.8 63 1005.3 18.3 SW 24.4 0.0 0.0
12:20 12.6 5.5 62 1005.3 19.7 W 24.4 0.0 0.0
12:21 12.5 5.4 62 1005.3 14.5 SW 24.4 0.0 0.0
12:23 12.6 5.7 63 1005.4 16.8 S 19.7 0.0 0.0
12:24 12.8 6.2 64 1005.4 22.1 SW 22.1 0.0 0.0
12:25 12.9 6.3 64 1005.3 17.4 SW 22.1 0.0 0.0
12:26 12.9 6.0 63 1005.2 18.3 S 22.1 0.0 0.0
12:27 12.9 6.0 63 1005.2 18.3 S 22.1 0.0 0.0
12:28 12.9 6.0 63 1005.4 18.3 S 22.1 0.0 0.0
12:29 12.9 6.0 63 1005.2 18.3 S 22.1 0.0 0.0
12:30 12.8 5.9 63 1005.3 13.0 S 22.1 0.0 0.0
12:31 12.8 5.9 63 1005.2 15.2 SW 22.1 0.0 0.0
12:32 12.7 5.8 63 1005.4 16.8 SW 22.1 0.0 0.0
12:33 12.7 5.8 63 1005.4 16.8 SW 22.1 0.0 0.0
12:34 12.7 5.8 63 1005.4 16.8 SW 22.1 0.0 0.0
12:35 12.7 5.8 63 1005.3 16.8 SW 22.1 0.0 0.0
12:36 12.5 5.9 64 1005.4 14.5 NW 18.3 0.0 0.0
12:38 12.5 5.9 64 1005.3 14.5 NW 18.3 0.0 0.0
12:39 12.5 5.9 64 1005.3 14.5 NW 16.8 0.0 0.0
12:40 12.4 6.9 69 1005.3 14.5 SW 16.8 0.0 0.0
12:41 12.4 6.9 69 1005.3 14.5 SW 16.8 0.0 0.0
12:42 12.3 7.0 70 1005.3 20.6 SW 20.6 0.0 0.0
12:43 12.3 7.0 70 1005.4 16.8 SW 20.6 0.0 0.0
12:44 12.3 7.0 70 1005.4 16.8 SW 20.6 0.0 0.0
12:45 12.2 6.9 70 1005.4 15.2 S 20.6 0.0 0.0
12:46 12.2 6.9 70 1005.4 15.2 S 20.6 0.0 0.0
12:47 12.1 6.8 70 1005.4 17.4 SSW 20.6 0.0 0.0
12:48 12.1 6.8 70 1005.1 17.4 SSW 20.6 0.0 0.0
12:49 12.1 6.8 70 1005.4 17.4 SSW 20.6 0.0 0.0
12:50 12.1 6.8 70 1005.4 17.4 SSW 20.6 0.0 0.0
12:51 12.5 6.5 67 1005.5 17.4 S 20.6 0.0 0.0
12:52 12.5 6.5 67 1005.3 17.4 S 20.6 0.0 0.0
12:54 12.5 6.1 65 1005.4 17.4 W 17.4 0.0 0.0
12:55 12.5 6.1 65 1005.4 17.4 W 17.4 0.0 0.0
12:56 12.5 6.1 65 1005.4 17.4 W 17.4 0.0 0.0
12:57 12.4 7.1 70 1005.4 17.4 S 17.4 0.0 0.0
12:58 12.4 7.1 70 1005.4 17.4 S 17.4 0.0 0.0
12:59 12.3 7.0 70 1005.5 15.2 SW 17.4 0.0 0.0
13:00 12.3 7.0 70 1005.4 14.5 W 17.4 0.0 0.0
13:01 12.3 7.0 70 1005.3 14.5 W 17.4 0.0 0.0
13:02 12.3 7.0 70 1005.5 14.5 W 17.4 0.0 0.0
13:03 12.4 7.1 70 1005.4 19.0 SW 19.0 0.0 0.0
13:04 12.4 7.1 70 1005.3 15.9 SW 19.0 0.0 0.0
13:05 12.4 7.1 70 1005.5 15.9 SW 19.0 0.0 0.0
13:06 12.3 7.0 70 1005.5 16.8 SW 19.0 0.0 0.0
13:08 12.2 7.1 71 1005.6 17.4 SW 19.0 0.0 0.0
13:09 12.2 7.1 71 1005.4 17.4 SW 19.0 0.0 0.0
13:10 12.2 7.1 71 1005.5 17.4 SW 19.0 0.0 0.0
13:11 12.2 7.1 71 1005.3 17.4 SW 19.0 0.0 0.0
13:12 12.0 7.1 72 1005.2 19.0 S 19.0 0.0 0.0
13:13 12.0 7.1 72 1005.3 19.0 S 19.0 0.0 0.0
13:14 12.0 7.1 72 1005.3 19.0 S 19.0 0.0 0.0
13:15 11.8 7.1 73 1005.3 15.9 SW 19.0 0.0 0.0
13:16 11.8 7.1 73 1005.4 15.9 SW 19.0 0.0 0.0
13:17 11.8 7.1 73 1005.3 15.9 SW 19.0 0.0 0.0
13:18 11.8 7.1 73 1005.3 15.9 SW 19.0 0.0 0.0
13:19 11.6 6.9 73 1005.5 19.0 WNW 19.0 0.0 0.0
13:21 11.5 6.8 73 1005.4 17.4 S 19.0 0.0 0.0
13:22 11.5 6.8 73 1005.4 17.4 S 19.0 0.0 0.0
13:23 11.5 6.8 73 1005.4 17.4 S 19.0 0.0 0.0
13:24 11.4 6.7 73 1005.2 15.9 S 19.0 0.0 0.0
13:25 11.4 6.7 73 1005.4 17.4 SW 19.0 0.0 0.0
13:26 11.4 6.7 73 1005.4 17.4 SW 19.0 0.0 0.0
13:27 11.4 6.7 73 1005.3 13.0 SW 19.0 0.0 0.0
13:28 11.4 6.7 73 1005.7 13.0 W 19.0 0.0 0.0
13:29 11.4 6.7 73 1005.5 13.0 W 19.0 0.0 0.0
13:30 11.5 6.8 73 1005.7 13.0 W 19.0 0.0 0.0
13:31 11.5 6.8 73 1005.5 13.0 W 17.4 0.0 0.0
13:32 11.5 6.8 73 1005.6 13.0 W 17.4 0.0 0.0
13:33 11.5 6.8 73 1005.5 13.0 W 17.4 0.0 0.0
13:35 11.6 6.9 73 1005.5 14.5 SW 17.4 0.0 0.0
13:36 11.6 6.7 72 1005.5 14.5 S 17.4 0.0 0.0
13:37 11.6 6.7 72 1005.7 13.6 SW 14.5 0.0 0.0
13:38 11.6 6.7 72 1005.6 16.8 SE 16.8 0.0 0.0
13:39 11.6 6.7 72 1005.6 15.2 SW 16.8 0.0 0.0
13:40 11.6 6.9 73 1005.7 16.8 NW 16.8 0.0 0.0
13:41 11.6 6.9 73 1005.5 17.4 S 17.4 0.0 0.0
13:42 11.6 6.9 73 1005.5 17.4 S 17.4 0.0 0.0
13:43 11.6 6.9 73 1005.6 19.0 SW 19.0 0.0 0.0
13:44 11.6 6.9 73 1005.8 19.0 SW 19.0 0.0 0.0
13:45 11.6 6.9 73 1005.6 12.1 SW 19.0 0.0 0.0
13:46 11.6 6.9 73 1005.5 10.7 W 19.0 0.0 0.0
13:47 11.6 6.9 73 1005.7 12.1 W 19.0 0.0 0.0
13:49 11.6 6.9 73 1005.7 18.3 NW 19.0 0.0 0.0
13:50 11.6 6.9 73 1005.7 18.3 S 19.0 0.0 0.0
13:51 11.6 6.9 73 1005.8 14.5 SE 19.0 0.0 0.0
13:52 11.6 6.9 73 1005.6 14.5 SW 19.0 0.0 0.0
13:53 11.5 6.8 73 1005.6 13.0 SW 19.0 0.0 0.0
13:54 11.5 6.8 73 1005.7 20.6 S 20.6 0.0 0.0
13:55 11.5 6.8 73 1005.9 13.6 SW 20.6 0.0 0.0
13:56 11.5 6.8 73 1005.7 15.9 SW 20.6 0.0 0.0
13:57 11.5 6.8 73 1005.9 17.4 NW 20.6 0.0 0.0
13:58 11.5 6.8 73 1005.7 17.4 W 20.6 0.0 0.0
13:59 11.5 6.8 73 1005.6 15.9 SW 20.6 0.0 0.0
14:00 11.5 6.8 73 1005.8 13.6 S 20.6 0.0 0.0
14:01 11.5 6.8 73 1005.7 13.6 S 20.6 0.0 0.0
14:02 11.5 6.8 73 1005.8 13.6 S 20.6 0.0 0.0
14:04 11.5 6.8 73 1005.7 13.6 S 20.6 0.0 0.0
14:05 11.4 6.7 73 1005.6 18.3 SW 18.3 0.0 0.0
14:06 11.4 6.7 73 1005.6 13.0 SW 18.3 0.0 0.0
14:07 11.4 6.7 73 1005.8 11.4 W 18.3 0.0 0.0
14:08 11.4 6.7 73 1005.5 11.4 SSW 18.3 0.0 0.0
14:09 11.4 6.7 73 1005.8 10.7 SW 18.3 0.0 0.0
14:10 11.4 6.7 73 1005.8 10.7 SW 18.3 0.0 0.0
14:11 11.4 6.9 74 1005.9 15.9 SW 18.3 0.0 0.0
14:12 11.4 6.9 74 1005.7 15.9 W 18.3 0.0 0.0
14:13 11.4 6.9 74 1005.6 13.0 S 18.3 0.0 0.0
14:14 11.5 7.0 74 1005.7 15.2 S 18.3 0.0 0.0
14:15 11.5 7.0 74 1005.7 17.4 W 18.3 0.0 0.0
14:16 11.5 7.0 74 1005.8 17.4 W 18.3 0.0 0.0
14:17 11.5 7.0 74 1005.8 18.3 SW 18.3 0.0 0.0
14:19 11.5 7.0 74 1005.5 17.4 SW 18.3 0.0 0.0
14:20 11.5 7.0 74 1005.7 12.1 S 18.3 0.0 0.0
14:21 11.5 7.0 74 1005.5 20.6 W 20.6 0.0 0.0
14:22 11.5 7.0 74 1005.7 15.2 W 20.6 0.0 0.0
14:23 11.5 7.0 74 1005.5 15.9 SW 20.6 0.0 0.0
14:24 11.5 7.0 74 1005.6 13.6 S 20.6 0.0 0.0
14:25 11.5 7.0 74 1005.7 15.2 W 20.6 0.0 0.0
14:26 11.6 7.1 74 1005.7 11.4 S 20.6 0.0 0.0
14:27 11.6 7.1 74 1005.6 13.0 SW 20.6 0.0 0.0
14:28 11.6 7.1 74 1005.6 13.0 SW 20.6 0.0 0.0
14:29 11.7 7.2 74 1005.5 13.6 SW 20.6 0.0 0.0
14:30 11.7 7.2 74 1005.6 13.6 S 20.6 0.0 0.0
14:31 11.7 7.2 74 1005.6 15.9 SW 20.6 0.0 0.0
14:33 11.8 7.3 74 1005.6 14.5 WSW 15.9 0.0 0.0
14:34 11.8 7.3 74 1005.7 11.4 SW 15.9 0.0 0.0
14:35 11.8 7.3 74 1005.8 11.4 NW 15.9 0.0 0.0
14:36 11.8 7.3 74 1005.7 13.0 SW 15.9 0.0 0.0
14:37 11.8 7.1 73 1005.5 11.4 W 15.9 0.0 0.0
14:38 11.8 7.1 73 1005.5 11.4 W 15.9 0.0 0.0
14:39 11.8 7.1 73 1005.6 11.4 SW 15.9 0.0 0.0
14:40 11.8 7.1 73 1005.6 12.1 SW 15.9 0.0 0.0
14:41 11.8 7.1 73 1005.6 11.4 S 15.9 0.0 0.0
14:42 11.8 7.1 73 1005.5 14.5 SW 15.9 0.0 0.0
14:43 11.8 7.1 73 1005.5 15.9 S 15.9 0.0 0.0
14:44 11.8 7.1 73 1005.8 17.4 SW 17.4 0.0 0.0
14:45 11.8 7.1 73 1005.6 17.4 S 17.4 0.0 0.0
14:47 11.8 7.1 73 1005.6 16.8 SW 17.4 0.0 0.0
14:48 11.8 7.1 73 1005.5 18.3 S 18.3 0.0 0.0
14:49 11.9 7.2 73 1005.7 13.0 WSW 18.3 0.0 0.0
14:50 11.9 7.2 73 1005.6 9.8 S 18.3 0.0 0.0
14:51 11.9 7.2 73 1005.5 10.7 SW 18.3 0.0 0.0
14:52 11.9 7.2 73 1005.8 10.7 SW 18.3 0.0 0.0
14:53 11.9 7.2 73 1005.6 9.2 SW 18.3 0.0 0.0
14:54 11.9 7.4 74 1005.6 10.7 SW 18.3 0.0 0.0
14:55 12.0 7.5 74 1005.7 13.6 SW 18.3 0.0 0.0
14:56 12.0 7.5 74 1005.5 15.2 SW 18.3 0.0 0.0
14:57 12.0 7.5 74 1005.6 13.6 SW 18.3 0.0 0.0
14:58 12.0 7.5 74 1005.8 10.7 SW 18.3 0.0 0.0
14:59 12.0 7.5 74 1005.5 17.4 S 18.3 0.0 0.0
15:00 12.0 7.5 74 1005.6 15.9 WSW 17.4 0.0 0.0
15:02 12.1 7.4 73 1005.6 13.6 SW 17.4 0.0 0.0
15:03 12.1 7.4 73 1005.7 11.4 NW 17.4 0.0 0.0
15:04 12.1 7.4 73 1005.8 11.4 SSW 17.4 0.0 0.0
15:05 12.1 7.4 73 1005.7 15.9 S 17.4 0.0 0.0
15:06 12.2 7.7 74 1005.4 15.9 SSE 17.4 0.0 0.0
15:07 12.2 7.7 74 1005.7 13.0 S 17.4 0.0 0.0
15:08 12.2 7.7 74 1005.6 15.9 S 17.4 0.0 0.0
15:09 12.2 7.7 74 1005.8 15.2 SW 17.4 0.0 0.0
15:10 12.2 7.7 74 1005.6 12.1 SE 15.9 0.0 0.0
15:11 12.3 7.8 74 1005.6 15.9 SW 15.9 0.0 0.0
15:12 12.3 7.8 74 1005.4 15.9 SW 15.9 0.0 0.0
15:13 12.3 7.8 74 1005.6 13.0 NW 15.9 0.0 0.0
15:14 12.3 7.8 74 1005.5 14.5 S 15.9 0.0 0.0
15:15 12.3 7.6 73 1005.8 17.4 S 17.4 0.0 0.0
15:16 12.3 7.6 73 1005.6 19.7 N 19.7 0.0 0.0
15:17 12.3 7.6 73 1005.8 15.9 SE 19.7 0.0 0.0
15:19 12.3 7.6 73 1005.8 12.1 SW 19.7 0.0 0.0
15:20 12.3 7.6 73 1005.1 19.7 S 19.7 0.0 0.0
15:21 12.4 7.7 73 1005.7 15.9 S 21.3 0.0 0.0
15:22 12.4 7.7 73 1005.8 20.6 W 21.3 0.0 0.0
15:23 12.4 7.7 73 1005.6 19.0 SW 21.3 0.0 0.0
15:24 12.3 7.6 73 1005.6 16.8 SW 21.3 0.0 0.0
15:25 12.3 7.6 73 1005.6 19.7 SE 21.3 0.0 0.0
15:26 12.3 7.6 73 1005.6 19.7 SE 21.3 0.0 0.0
15:27 12.3 7.6 73 1005.5 19.0 SW 21.3 0.0 0.0
15:28 12.3 7.6 73 1005.6 14.5 SW 21.3 0.0 0.0
15:29 12.3 7.6 73 1005.5 15.9 S 21.3 0.0 0.0
15:30 12.3 7.6 73 1005.5 13.6 SE 21.3 0.0 0.0
15:31 12.3 7.6 73 1005.7 14.5 WSW 21.3 0.0 0.0
15:32 12.3 7.6 73 1005.6 13.0 SW 20.6 0.0 0.0
15:33 12.3 7.6 73 1005.5 17.4 NW 19.7 0.0 0.0
15:35 12.3 7.6 73 1005.6 18.3 W 19.7 0.0 0.0
15:36 12.4 7.7 73 1005.7 15.9 SE 19.0 0.0 0.0
15:37 12.3 7.6 73 1005.7 17.4 S 18.3 0.0 0.0
15:38 12.3 7.6 73 1005.7 17.4 WSW 18.3 0.0 0.0
15:39 12.3 7.6 73 1005.7 18.3 S 18.3 0.0 0.0
15:40 12.3 7.6 73 1005.8 14.5 SSW 18.3 0.0 0.0
15:41 12.3 7.6 73 1005.6 18.3 S 18.3 0.0 0.0
15:42 12.3 7.6 73 1005.6 20.6 SW 20.6 0.0 0.0
15:43 12.3 7.6 73 1005.7 10.7 SW 20.6 0.0 0.0
15:44 12.3 7.6 73 1005.6 9.8 W 20.6 0.0 0.0
15:45 12.3 7.6 73 1005.5 13.6 NNW 20.6 0.0 0.0
15:46 12.3 7.6 73 1005.7 13.6 SW 20.6 0.0 0.0
15:47 12.4 7.9 74 1005.5 13.6 S 20.6 0.0 0.0
15:48 12.4 7.9 74 1006.0 19.0 W 20.6 0.0 0.0
15:49 12.4 7.9 74 1005.7 13.0 SW 20.6 0.0 0.0
15:51 12.4 7.9 74 1005.9 16.8 S 20.6 0.0 0.0
15:52 12.4 7.9 74 1005.6 15.9 S 19.0 0.0 0.0
15:53 12.4 7.9 74 1005.7 21.3 S 21.3 0.0 0.0
15:54 12.3 7.8 74 1005.8 21.3 SW 21.3 0.0 0.0
15:55 12.3 7.8 74 1005.5 15.2 W 21.3 0.0 0.0
15:56 12.3 7.8 74 1005.6 13.6 W 21.3 0.0 0.0
15:57 12.3 7.8 74 1005.4 13.6 SW 21.3 0.0 0.0
15:58 12.3 7.8 74 1005.6 13.6 W 21.3 0.0 0.0
15:59 12.4 7.9 74 1005.9 12.1 NW 21.3 0.0 0.0
16:00 12.4 7.9 74 1005.7 19.0 SSW 21.3 0.0 0.0
16:01 12.4 7.9 74 1005.5 19.0 SSW 21.3 0.0 0.0
16:02 12.4 7.9 74 1005.7 19.0 SSW 21.3 0.0 0.0
16:03 12.4 7.9 74 1005.6 19.0 SSW 21.3 0.0 0.0
16:04 12.4 7.9 74 1005.8 19.0 SSW 21.3 0.0 0.0
16:06 12.4 7.9 74 1005.7 14.5 W 21.3 0.0 0.0
16:07 12.4 7.9 74 1005.6 14.5 S 21.3 0.0 0.0
16:08 12.4 7.9 74 1005.8 17.4 NW 21.3 0.0 0.0
16:09 12.3 7.8 74 1005.7 15.9 SW 21.3 0.0 0.0
16:10 12.3 7.8 74 1005.7 17.4 SW 21.3 0.0 0.0
16:11 12.3 7.8 74 1005.7 17.4 SW 21.3 0.0 0.0
16:12 12.3 7.8 74 1005.8 13.6 SW 21.3 0.0 0.0
16:13 12.4 8.1 75 1005.5 15.9 S 21.3 0.0 0.0
16:14 12.4 8.1 75 1005.6 22.1 SW 22.1 0.0 0.0
16:15 12.4 8.1 75 1005.6 15.9 S 22.1 0.0 0.0
16:16 12.4 8.1 75 1005.6 19.0 W 22.1 0.0 0.0
16:17 12.4 8.1 75 1005.7 12.1 W 22.1 0.0 0.0
16:18 12.5 7.6 72 1005.7 9.2 W 22.1 0.0 0.0
16:19 12.5 7.6 72 1005.7 13.6 SW 22.1 0.0 0.0
16:20 12.5 7.6 72 1005.7 15.2 S 22.1 0.0 0.0
16:22 12.5 7.6 72 1005.7 19.7 W 22.1 0.0 0.0
16:23 12.5 7.6 72 1005.4 18.3 SW 22.1 0.0 0.0
16:24 12.5 7.6 72 1005.8 18.3 S 20.6 0.0 0.0
16:25 12.4 7.9 74 1005.4 19.0 SW 20.6 0.0 0.0
16:26 12.4 7.9 74 1005.7 11.4 S 20.6 0.0 0.0
16:27 12.4 7.9 74 1005.6 19.7 WNW 20.6 0.0 0.0
16:28 12.4 7.9 74 1005.5 17.4 SW 20.6 0.0 0.0
16:29 12.4 7.9 74 1005.8 18.3 SW 20.6 0.0 0.0
16:30 12.3 7.8 74 1005.7 15.2 S 20.6 0.0 0.0
16:31 12.3 7.8 74 1005.6 17.4 N 20.6 0.0 0.0
16:32 12.3 7.8 74 1005.5 9.2 SE 19.7 0.0 0.0
16:33 12.3 7.8 74 1005.6 15.2 SW 19.7 0.0 0.0
16:34 12.3 8.0 75 1005.5 15.2 SW 19.7 0.0 0.0
16:35 12.2 7.9 75 1005.5 17.4 SW 19.7 0.0 0.0
16:36 12.2 7.9 75 1005.8 17.4 SW 19.7 0.0 0.0
16:38 12.2 7.9 75 1005.6 10.7 SW 18.3 0.0 0.0
16:39 12.2 7.9 75 1005.5 16.8 S 17.4 0.0 0.0
16:40 12.2 8.1 76 1005.6 16.8 SW 17.4 0.0 0.0
16:41 12.1 8.0 76 1005.6 13.6 S 17.4 0.0 0.0
16:42 12.1 8.0 76 1005.3 13.6 S 17.4 0.0 0.0
16:43 12.1 8.0 76 1005.5 15.2 S 17.4 0.0 0.0
16:44 12.1 8.2 77 1005.5 21.3 SW 21.3 0.0 0.0
16:45 12.0 8.1 77 1005.6 21.3 W 21.3 0.0 0.0
16:46 12.0 8.1 77 1005.6 17.4 SSW 21.3 0.0 0.0
16:47 12.0 8.1 77 1005.5 18.3 S 21.3 0.0 0.0
16:48 11.9 8.2 78 1005.5 14.5 SW 21.3 0.0 0.0
16:49 11.9 8.2 78 1005.6 16.8 SW 21.3 0.0 0.0
16:50 11.9 8.2 78 1005.6 13.6 S 21.3 0.0 0.0
16:51 11.9 8.4 79 1005.6 12.1 S 21.3 0.0 0.0
16:52 11.9 8.4 79 1005.6 11.4 SW 21.3 0.0 0.0
16:54 11.9 8.4 79 1005.6 10.7 SW 21.3 0.0 0.0
16:55 11.9 8.4 79 1005.4 10.7 SW 18.3 0.0 0.0
16:56 11.9 8.6 80 1005.3 11.4 SW 18.3 0.0 0.0
16:57 11.9 8.6 80 1005.4 15.2 S 18.3 0.0 0.0
16:58 11.8 8.5 80 1005.4 12.1 S 16.8 0.0 0.0
16:59 11.8 8.5 80 1005.5 19.7 SW 19.7 0.0 0.0
17:00 11.8 8.5 80 1005.6 13.6 SW 19.7 0.0 0.0
17:01 11.8 8.5 80 1005.5 13.6 SW 19.7 0.0 0.0
17:02 11.8 8.5 80 1005.6 13.6 SW 19.7 0.0 0.0
17:03 11.8 8.5 80 1005.7 13.6 SW 19.7 0.0 0.0
17:04 11.8 8.5 80 1005.6 13.6 SW 19.7 0.0 0.0
17:05 11.8 8.5 80 1005.5 13.6 SW 19.7 0.0 0.0
17:06 11.8 8.6 81 1005.6 15.9 SW 19.7 0.8 0.1
17:07 11.8 8.6 81 1005.4 16.8 SW 19.7 0.8 0.1
17:09 11.8 8.6 81 1005.5 13.6 SW 16.8 0.8 0.1
17:10 11.8 8.6 81 1005.5 13.0 SW 16.8 0.8 0.1
17:11 11.8 8.6 81 1005.5 18.3 SW 18.3 0.0 0.1
17:12 11.8 8.6 81 1005.4 18.3 SW 18.3 0.0 0.1
17:13 11.8 8.6 81 1005.4 15.2 SW 18.3 0.0 0.1
17:14 11.8 8.6 81 1005.3 9.2 W 18.3 0.0 0.1
17:15 11.8 8.6 81 1005.6 9.2 SW 18.3 0.0 0.1
17:16 11.8 8.6 81 1005.4 10.7 S 18.3 0.0 0.1
17:17 11.7 8.6 81 1005.4 15.9 SW 18.3 0.8 0.1
17:18 11.7 8.6 81 1005.4 15.9 SW 18.3 0.8 0.1
17:19 11.7 8.7 82 1005.6 9.8 SE 18.3 0.8 0.1
17:20 11.7 8.7 82 1005.7 12.1 N 18.3 0.8 0.2
17:21 11.7 8.7 82 1005.5 13.6 SW 18.3 2.3 0.3
17:22 11.6 8.6 82 1005.7 18.3 S 18.3 1.5 0.3
17:23 11.6 8.6 82 1005.5 13.0 S 18.3 3.0 0.5
17:24 11.6 8.6 82 1005.4 13.6 S 18.3 4.5 0.6
17:25 11.5 8.5 82 1005.4 11.4 SSW 18.3 5.3 0.6
17:26 11.5 8.5 82 1005.4 11.4 SSW 18.3 4.5 0.6
17:27 11.5 8.7 83 1005.5 9.8 S 18.3 6.0 0.9
17:28 11.5 8.7 83 1005.4 10.7 S 18.3 6.0 0.9
17:29 11.5 8.7 83 1005.5 11.4 SW 18.3 5.3 0.9
17:30 11.5 8.7 83 1005.2 14.5 SW 18.3 4.5 0.9
17:31 11.4 8.6 83 1005.4 9.8 SW 18.3 4.5 1.0
17:32 11.5 8.9 84 1005.4 13.6 W 14.5 3.0 1.0
17:33 11.5 8.9 84 1005.5 14.5 S 14.5 1.5 1.0
17:34 11.5 9.1 85 1005.4 12.1 NW 17.4 0.8 1.0
17:36 11.5 9.1 85 1005.4 10.7 S 17.4 0.0 1.0
17:37 11.6 9.2 85 1005.4 15.2 S 17.4 0.0 1.0
17:38 11.6 9.3 86 1005.4 15.2 W 17.4 0.0 1.0
17:39 11.6 9.3 86 1005.5 9.8 SW 17.4 0.0 1.0
17:40 11.6 9.3 86 1005.6 8.3 SW 17.4 0.0 1.0
17:41 11.7 9.4 86 1005.5 16.8 S 17.4 0.8 1.1
17:42 11.7 9.4 86 1005.5 16.8 S 17.4 0.8 1.1
17:43 11.7 9.6 87 1005.6 12.1 W 17.4 0.8 1.1
17:44 11.7 9.6 87 1005.5 10.7 S 16.8 0.8 1.1
17:45 11.7 9.6 87 1005.4 10.7 W 16.8 0.8 1.1
17:46 11.7 9.6 87 1005.6 14.5 SW 16.8 0.0 1.1
17:47 11.7 9.6 87 1005.5 11.4 S 16.8 0.8 1.1
17:48 11.7 9.6 87 1005.4 13.6 S 16.8 0.8 1.1
17:49 11.7 9.6 87 1005.4 13.0 W 16.8 0.8 1.1
17:51 11.7 9.8 88 1005.4 11.4 SW 16.8 0.8 1.1
17:52 11.7 9.8 88 1005.3 12.1 SW 14.5 0.0 1.1
17:53 11.6 9.7 88 1005.3 9.8 S 14.5 0.8 1.2
17:54 11.6 9.7 88 1005.6 12.1 S 14.5 0.8 1.3
17:55 11.6 9.7 88 1005.3 13.0 SW 14.5 1.5 1.3
17:56 11.6 9.7 88 1005.5 15.9 N 15.9 1.5 1.3
17:57 11.6 9.7 88 1005.4 15.9 W 15.9 2.3 1.3
17:58 11.6 9.7 88 1005.5 13.0 SW 15.9 1.5 1.3
17:59 11.5 9.6 88 1005.5 13.0 SW 15.9 2.3 1.4
18:00 11.5 9.6 88 1005.6 13.6 WNW 15.9 1.5 1.4
18:01 11.5 9.6 88 1005.5 13.6 WNW 15.9 1.5 1.4
18:02 11.5 9.6 88 1005.4 13.6 WNW 15.9 0.8 1.4
18:03 11.5 9.6 88 1005.6 11.4 NW 15.9 0.8 1.4
18:04 11.5 9.6 88 1005.7 11.4 SW 15.9 0.0 1.4
18:06 11.5 9.6 88 1005.3 11.4 S 15.9 0.0 1.4
18:07 11.5 9.8 89 1005.3 8.3 SW 13.6 0.0 1.4
18:08 11.5 9.8 89 1005.5 9.2 SW 13.6 0.0 1.4
18:09 11.6 9.9 89 1005.5 11.4 W 13.6 0.0 1.4
18:10 11.6 9.9 89 1005.4 11.4 WNW 13.6 0.0 1.4
18:11 11.6 9.9 89 1005.2 10.7 SW 13.6 0.0 1.4
18:12 11.6 9.9 89 1005.5 10.7 SW 13.6 0.0 1.4
18:13 11.6 10.0 90 1005.4 9.8 S 12.1 0.8 1.4
18:14 11.6 10.0 90 1005.5 13.0 W 13.0 0.8 1.4
18:15 11.6 10.0 90 1005.5 9.8 W 13.0 0.8 1.4
18:16 11.6 10.0 90 1005.6 9.8 W 13.0 0.8 1.4
18:17 11.6 10.0 90 1005.3 17.4 S 17.4 0.8 1.4
18:18 11.6 10.0 90 1005.5 14.5 SW 17.4 0.8 1.5
18:19 11.6 10.0 90 1005.5 12.1 SW 17.4 0.8 1.5
18:21 11.6 10.0 90 1005.3 13.0 W 17.4 0.8 1.5
18:22 11.6 10.0 90 1005.5 10.7 W 17.4 0.8 1.5
18:23 11.6 10.0 90 1005.5 10.7 W 17.4 0.0 1.5
18:24 11.6 10.0 90 1005.4 10.7 W 17.4 0.0 1.5
18:25 11.6 10.0 90 1005.6 12.1 NW 17.4 0.0 1.5
18:26 11.6 10.0 90 1005.6 12.1 NW 17.4 0.0 1.5
18:27 11.6 10.0 90 1005.6 11.4 SW 17.4 0.0 1.5
18:28 11.6 9.9 89 1005.5 13.6 NW 14.5 0.0 1.5
18:29 11.6 9.9 89 1005.5 13.6 W 13.6 0.0 1.5
18:30 11.6 9.9 89 1005.3 11.4 SW 13.6 0.0 1.5
18:31 11.5 9.8 89 1005.5 12.1 WSW 13.6 0.0 1.5
18:32 11.5 9.8 89 1005.6 10.7 S 13.6 0.0 1.5
18:33 11.5 9.8 89 1005.5 11.4 S 13.6 0.0 1.5
18:34 11.5 9.8 89 1005.4 13.0 NW 13.6 0.0 1.5
18:35 11.5 9.8 89 1005.5 6.9 SW 14.5 0.0 1.5
18:37 11.5 9.6 88 1005.7 9.8 SW 14.5 0.8 1.6
18:38 11.4 9.5 88 1005.6 10.7 S 14.5 0.8 1.6
18:39 11.4 9.5 88 1005.5 10.7 S 14.5 0.8 1.6
18:40 11.4 9.5 88 1005.5 15.2 SE 15.2 0.8 1.6
18:41 11.4 9.5 88 1005.7 9.2 W 15.2 0.8 1.6
18:42 11.4 9.5 88 1005.7 9.2 W 15.2 0.0 1.6
18:43 11.4 9.5 88 1005.5 9.8 S 15.2 0.0 1.6
18:44 11.4 9.5 88 1005.6 8.3 W 15.2 0.0 1.6
18:45 11.4 9.5 88 1005.5 9.8 S 15.2 0.0 1.6
18:46 11.4 9.5 88 1005.6 9.2 SW 15.2 0.0 1.6
18:47 11.4 9.5 88 1005.6 12.1 SE 15.2 0.0 1.6
18:48 11.4 9.5 88 1005.6 10.7 SW 15.2 0.0 1.6
18:49 11.4 9.5 88 1005.5 11.4 S 15.2 0.0 1.6
18:51 11.4 9.5 88 1005.6 9.2 SW 14.5 0.0 1.6
18:52 11.4 9.5 88 1005.8 8.3 SW 14.5 0.0 1.6
18:53 11.4 9.5 88 1005.7 11.4 SW 14.5 0.0 1.6
18:54 11.4 9.5 88 1005.6 11.4 S 14.5 0.0 1.6
18:55 11.4 9.5 88 1005.5 11.4 SW 14.5 0.0 1.6
18:56 11.4 9.5 88 1005.5 13.0 W 14.5 0.0 1.6
18:57 11.4 9.5 88 1005.4 13.0 WSW 14.5 0.0 1.6
18:58 11.4 9.7 89 1005.8 11.4 SW 14.5 0.0 1.6
18:59 11.4 9.7 89 1005.7 16.8 SW 16.8 0.0 1.6
19:00 11.4 9.7 89 1005.6 16.8 SW 16.8 0.0 1.6
19:01 11.4 9.7 89 1005.5 16.8 SW 16.8 0.0 1.6
19:02 11.4 9.7 89 1005.6 16.8 SW 16.8 0.0 1.6
19:03 11.4 9.7 89 1005.5 6.0 SW 16.8 0.0 1.6
19:04 11.4 9.7 89 1005.6 9.8 SW 16.8 0.0 1.6
19:06 11.4 9.7 89 1005.8 10.7 SW 16.8 0.0 1.6
19:07 11.4 9.7 89 1005.6 14.5 NNE 16.8 0.0 1.6
19:08 11.4 9.7 89 1005.5 14.5 SW 16.8 0.8 1.6
19:09 11.4 9.7 89 1005.5 15.2 WSW 16.8 0.8 1.6
19:10 11.4 9.7 89 1005.6 9.8 W 16.8 0.8 1.6
19:11 11.4 9.7 89 1005.6 10.7 NW 16.8 0.8 1.6
19:12 11.3 9.6 89 1005.7 12.1 SW 15.2 0.8 1.6
19:13 11.3 9.6 89 1005.6 12.1 W 15.2 0.0 1.6
19:14 11.3 9.6 89 1005.5 9.8 SW 15.2 0.0 1.6
19:15 11.3 9.6 89 1005.7 13.6 SW 15.2 0.0 1.6
19:16 11.3 9.6 89 1005.6 13.0 SW 15.2 0.0 1.6
19:17 11.3 9.6 89 1005.7 15.9 S 15.9 0.0 1.6
19:18 11.3 9.6 89 1005.5 15.2 SW 15.9 0.0 1.6
19:19 11.3 9.6 89 1005.5 13.0 NW 15.9 0.0 1.6
19:20 11.3 9.6 89 1005.8 10.7 W 15.9 0.0 1.6
19:21 11.3 9.6 89 1005.6 10.7 S 15.9 0.0 1.6
19:22 11.3 9.6 89 1005.4 9.2 W 15.9 0.0 1.6
19:24 11.3 9.6 89 1005.5 9.2 NW 15.9 0.0 1.6
19:25 11.3 9.6 89 1005.4 10.7 W 15.9 0.0 1.6
19:27 11.3 9.6 89 1005.5 7.6 SW 15.2 0.0 1.6
19:28 11.3 9.6 89 1005.5 5.4 S 13.0 0.0 1.6
19:29 11.3 9.6 89 1005.2 10.7 SW 10.7 0.0 1.6
19:30 11.3 9.6 89 1005.2 8.3 S 10.7 0.0 1.6
19:31 11.3 9.6 89 1005.7 12.1 SW 12.1 0.0 1.6
19:32 11.3 9.6 89 1005.6 11.4 SE 12.1 0.0 1.6
19:33 11.3 9.6 89 1005.3 14.5 SW 14.5 0.0 1.6
19:34 11.3 9.6 89 1005.5 16.8 W 16.8 0.0 1.6
19:35 11.3 9.6 89 1005.4 15.2 W 16.8 0.0 1.6
19:36 11.3 9.6 89 1005.5 14.5 SW 16.8 0.0 1.6
19:37 11.3 9.6 89 1005.4 11.4 W 16.8 0.0 1.6
19:38 11.3 9.6 89 1005.6 11.4 SW 16.8 0.0 1.6
19:39 11.3 9.6 89 1005.5 15.9 NW 16.8 0.0 1.6
19:40 11.4 9.7 89 1005.4 13.6 S 16.8 0.0 1.6
19:41 11.4 9.7 89 1005.5 16.8 SW 16.8 0.0 1.6
19:43 11.4 9.7 89 1005.4 13.6 SW 16.8 0.0 1.6
19:44 11.4 9.7 89 1005.6 11.4 S 16.8 0.0 1.6
19:45 11.4 9.7 89 1005.7 8.3 NW 16.8 0.0 1.6
19:46 11.4 9.7 89 1005.4 13.0 S 16.8 0.0 1.6
19:47 11.5 9.8 89 1005.7 13.0 W 16.8 0.0 1.6
19:48 11.5 9.8 89 1005.7 9.2 SW 16.8 0.0 1.6
19:49 11.5 9.8 89 1005.6 9.8 W 16.8 0.0 1.6
19:50 11.5 9.8 89 1005.6 13.0 SW 16.8 0.0 1.6
19:51 11.5 9.8 89 1005.5 14.5 SW 16.8 0.0 1.6
19:52 11.5 9.8 89 1005.6 14.5 SW 14.5 0.0 1.6
19:53 11.5 9.8 89 1005.4 15.2 NE 15.2 0.0 1.6
19:54 11.5 9.6 88 1005.6 10.7 S 15.2 0.0 1.6
19:55 11.5 9.6 88 1005.5 10.7 SW 15.9 0.0 1.6
19:57 11.5 9.6 88 1005.3 10.7 S 15.9 0.0 1.6
19:58 11.5 9.6 88 1005.4 15.2 N 15.9 0.0 1.6
19:59 11.6 9.7 88 1005.3 15.2 SW 15.9 0.0 1.6
20:00 11.6 9.7 88 1005.4 16.8 S 16.8 0.0 1.6
20:01 11.6 9.7 88 1005.5 16.8 S 16.8 0.0 1.6
20:02 11.6 9.7 88 1005.5 13.6 W 16.8 0.0 1.6
20:03 11.6 9.7 88 1005.5 9.8 SW 16.8 0.0 1.6
20:04 11.6 9.7 88 1005.4 13.0 SW 16.8 0.0 1.6
20:05 11.6 9.7 88 1005.5 9.8 SW 16.8 0.0 1.6
20:06 11.6 9.7 88 1005.6 8.3 SW 16.8 0.0 1.6
20:07 11.6 9.7 88 1005.4 16.8 W 16.8 0.0 1.6
20:08 11.6 9.7 88 1005.5 16.8 SW 16.8 0.0 1.6
20:09 11.6 9.7 88 1005.5 10.7 W 16.8 0.0 1.6
20:10 11.6 9.7 88 1005.5 8.3 NW 16.8 0.0 1.6
20:12 11.6 9.7 88 1005.7 13.0 SW 16.8 0.0 1.6
20:13 11.6 9.7 88 1005.4 10.7 NW 16.8 0.0 1.6
20:14 11.6 9.5 87 1005.7 12.1 SW 16.8 0.0 1.6
20:15 11.6 9.5 87 1005.6 12.1 W 16.8 0.0 1.6
20:16 11.6 9.5 87 1005.7 12.1 S 16.8 0.0 1.6
20:17 11.6 9.5 87 1005.4 14.5 N 16.8 0.0 1.6
20:18 11.6 9.5 87 1005.4 14.5 N 16.8 0.0 1.6
20:19 11.6 9.5 87 1005.6 11.4 S 14.5 0.0 1.6
20:20 11.5 9.4 87 1005.6 10.7 SW 14.5 0.0 1.6
20:21 11.5 9.4 87 1005.6 9.8 SW 14.5 0.0 1.6
20:22 11.5 9.4 87 1005.7 14.5 SW 14.5 0.0 1.6
20:23 11.5 9.4 87 1005.5 13.6 S 14.5 0.0 1.6
20:24 11.5 9.4 87 1005.6 8.3 NW 14.5 0.0 1.6
20:25 11.5 9.2 86 1005.6 13.0 W 14.5 0.0 1.6
20:26 11.5 9.2 86 1005.5 13.6 S 14.5 0.0 1.6
20:28 11.5 9.2 86 1005.7 14.5 SW 15.2 0.0 1.6
20:29 11.5 9.2 86 1005.6 13.6 SW 15.2 0.0 1.6
20:30 11.5 9.2 86 1005.5 11.4 W 15.2 0.0 1.6
20:31 11.5 9.2 86 1005.5 15.2 S 15.2 0.0 1.6
20:32 11.5 9.2 86 1005.5 15.2 S 15.2 0.0 1.6
20:33 11.5 9.2 86 1005.6 12.1 SW 15.2 0.0 1.6
20:34 11.6 9.3 86 1005.7 11.4 S 15.2 0.0 1.6
20:35 11.6 9.3 86 1005.7 11.4 SW 15.2 0.0 1.6
20:36 11.6 9.3 86 1005.7 8.3 SW 15.2 0.0 1.6
20:38 11.6 9.3 86 1005.4 11.4 W 15.2 0.0 1.6
20:39 11.6 9.3 86 1005.7 12.1 W 15.2 0.0 1.6
20:40 11.6 9.5 87 1005.5 13.6 SSW 15.2 0.0 1.6
20:41 11.6 9.5 87 1005.6 8.3 SE 15.2 0.0 1.6
20:42 11.6 9.5 87 1005.6 13.0 S 14.5 0.0 1.6
20:43 11.6 9.5 87 1005.8 13.0 W 13.6 0.0 1.6
20:45 11.6 9.5 87 1005.8 13.6 SW 13.6 0.0 1.6
20:46 11.6 9.5 87 1005.8 8.3 W 13.6 0.0 1.6
20:47 11.6 9.5 87 1005.6 7.6 SW 13.6 0.0 1.6
20:48 11.6 9.5 87 1005.6 11.4 S 13.6 0.0 1.6
20:49 11.6 9.5 87 1005.6 15.9 W 15.9 0.0 1.6
20:50 11.6 9.5 87 1005.7 10.7 NW 15.9 0.0 1.6
20:51 11.6 9.5 87 1006.0 10.7 W 15.9 0.0 1.6
20:52 11.6 9.5 87 1005.7 15.9 NW 15.9 0.0 1.6
20:53 11.6 9.5 87 1005.9 15.9 W 15.9 0.0 1.6
20:54 11.6 9.5 87 1005.7 9.2 SW 15.9 0.0 1.6
20:55 11.6 9.5 87 1005.9 6.0 W 15.9 0.0 1.6
20:56 11.6 9.5 87 1005.8 10.7 W 15.9 0.0 1.6
20:57 11.6 9.5 87 1005.8 11.4 SW 15.9 0.0 1.6
20:58 11.6 9.5 87 1005.6 12.1 WSW 15.9 0.0 1.6
21:00 11.6 9.3 86 1005.7 12.1 N 15.9 0.0 1.6
21:01 11.6 9.3 86 1005.7 12.1 N 15.9 0.0 1.6
21:02 11.6 9.3 86 1005.8 12.1 N 15.9 0.0 1.6
21:03 11.6 9.3 86 1005.9 12.1 N 13.0 0.0 1.6
21:04 11.6 9.3 86 1005.7 12.1 N 13.0 0.0 1.6
21:05 11.6 9.3 86 1005.8 13.0 W 13.0 0.0 1.6
21:06 11.6 9.3 86 1005.4 13.0 N 13.0 0.0 1.6
21:07 11.6 9.3 86 1005.4 13.0 N 13.0 0.0 1.6
21:08 11.6 9.3 86 1005.7 12.1 S 13.0 0.0 1.6
21:09 11.6 9.3 86 1005.8 9.2 SW 13.0 0.0 1.6
21:10 11.6 9.3 86 1005.8 7.6 NW 13.0 0.0 1.6
21:11 11.6 9.3 86 1005.9 6.0 W 13.0 0.0 1.6
21:12 11.6 9.3 86 1005.9 12.1 SW 13.0 0.0 1.6
21:13 11.6 9.3 86 1005.7 9.8 S 13.0 0.0 1.6
21:14 11.6 9.3 86 1005.7 9.2 W 13.0 0.0 1.6
21:15 11.6 9.3 86 1006.0 9.2 W 13.0 0.0 1.6
21:16 11.6 9.3 86 1005.9 10.7 W 13.0 0.0 1.6
21:18 11.6 9.3 86 1005.9 6.0 SW 12.1 0.0 1.6
21:19 11.6 9.3 86 1005.6 6.9 E 12.1 0.0 1.6
21:20 11.6 9.3 86 1005.8 9.2 SE 12.1 0.0 1.6
21:21 11.6 9.5 87 1005.9 11.4 W 12.1 0.0 1.6
21:22 11.6 9.5 87 1005.8 9.2 NW 11.4 0.0 1.6
21:24 11.6 9.5 87 1005.9 14.5 S 14.5 0.0 1.6
21:25 11.6 9.5 87 1006.0 6.9 SW 14.5 0.0 1.6
21:26 11.6 9.5 87 1005.9 8.3 SE 14.5 0.0 1.6
21:27 11.5 9.4 87 1006.2 9.8 W 14.5 0.0 1.6
21:28 11.5 9.4 87 1006.0 9.8 NW 14.5 0.0 1.6
21:29 11.5 9.4 87 1005.9 9.8 SW 14.5 0.0 1.6
21:30 11.5 9.4 87 1005.9 9.8 NW 14.5 0.0 1.6
21:31 11.5 9.4 87 1006.1 11.4 W 14.5 0.0 1.6
21:33 11.5 9.4 87 1006.0 13.0 SW 14.5 0.0 1.6
21:34 11.5 9.4 87 1006.0 11.4 SW 13.0 0.0 1.6
21:35 11.5 9.4 87 1006.1 11.4 SW 13.0 0.0 1.6
21:36 11.5 9.4 87 1006.0 11.4 ESE 13.0 0.0 1.6
21:37 11.5 9.4 87 1006.4 7.6 N 13.0 0.0 1.6
21:38 11.5 9.4 87 1006.1 9.2 SW 13.0 0.0 1.6
21:39 11.5 9.4 87 1006.1 9.2 SW 13.0 0.0 1.6
21:40 11.5 9.4 87 1006.2 10.7 S 13.0 0.0 1.6
21:41 11.5 9.4 87 1006.0 10.7 SW 13.0 0.0 1.6
21:42 11.5 9.4 87 1006.2 8.3 W 13.0 0.0 1.6
21:43 11.5 9.4 87 1006.2 8.3 W 13.0 0.0 1.6
21:44 11.5 9.4 87 1006.2 6.0 SW 13.0 0.0 1.6
21:45 11.5 9.4 87 1006.2 7.6 W 11.4 0.0 1.6
21:46 11.5 9.4 87 1006.3 5.4 S 11.4 0.0 1.6
21:47 11.5 9.4 87 1006.2 9.8 SW 10.7 0.0 1.6
21:48 11.5 9.4 87 1006.2 10.7 S 10.7 0.0 1.6
21:49 11.5 9.4 87 1006.1 8.3 S 10.7 0.0 1.6
21:51 11.5 9.4 87 1006.3 10.7 W 10.7 0.0 1.6
21:52 11.5 9.4 87 1006.2 5.4 W 10.7 0.0 1.6
21:53 11.5 9.4 87 1006.3 10.7 SW 10.7 0.0 1.6
21:54 11.5 9.4 87 1006.5 10.7 SW 10.7 0.0 1.6
21:55 11.5 9.4 87 1006.2 6.0 S 10.7 0.0 1.6
21:56 11.5 9.4 87 1006.4 6.9 S 10.7 0.0 1.6
21:57 11.5 9.4 87 1006.4 6.9 S 10.7 0.0 1.6
21:58 11.4 9.3 87 1006.4 7.6 SW 10.7 0.0 1.6
21:59 11.4 9.3 87 1006.3 6.9 SW 10.7 0.0 1.6
22:00 11.4 9.3 87 1006.3 9.2 NW 10.7 0.0 1.6
22:01 11.4 9.3 87 1006.3 9.2 NW 10.7 0.0 1.6
22:02 11.4 9.3 87 1006.6 9.2 NW 10.7 0.0 1.6
22:03 11.4 9.3 87 1006.3 9.2 NW 10.7 0.0 1.6
22:04 11.4 9.3 87 1006.6 9.2 NW 10.7 0.0 1.6
22:05 11.4 9.3 87 1006.4 9.2 NW 9.2 0.0 1.6
22:06 11.4 9.3 87 1006.3 9.2 NW 9.2 0.0 1.6
22:08 11.4 9.3 87 1006.5 9.8 NW 11.4 0.0 1.6
22:09 11.4 9.3 87 1006.6 7.6 W 11.4 0.0 1.6
22:10 11.4 9.3 87 1006.4 12.1 NW 12.1 0.0 1.6
22:11 11.4 9.3 87 1006.4 12.1 SW 12.1 0.0 1.6
22:12 11.4 9.3 87 1006.5 10.7 W 12.1 0.0 1.6
22:13 11.4 9.3 87 1006.5 7.6 W 12.1 0.0 1.6
22:14 11.4 9.3 87 1006.4 9.2 SW 12.1 0.0 1.6
22:15 11.4 9.3 87 1006.5 9.8 SW 12.1 0.0 1.6
22:16 11.4 9.3 87 1006.4 8.3 SW 12.1 0.0 1.6
22:17 11.4 9.3 87 1006.5 9.8 SW 12.1 0.0 1.6
22:18 11.4 9.3 87 1006.5 9.8 S 12.1 0.0 1.6
22:19 11.4 9.3 87 1006.5 8.3 SW 12.1 0.0 1.6
22:20 11.4 9.3 87 1006.3 10.7 WNW 12.1 0.0 1.6
22:21 11.4 9.3 87 1006.5 10.7 NW 12.1 0.0 1.6
22:23 11.4 9.3 87 1006.4 8.3 W 10.7 0.0 1.6
22:24 11.5 9.4 87 1006.6 6.9 WSW 10.7 0.0 1.6
22:25 11.5 9.4 87 1006.4 9.8 SW 10.7 0.0 1.6
22:26 11.5 9.4 87 1006.5 9.2 NW 10.7 0.0 1.6
22:27 11.5 9.4 87 1006.6 11.4 W 11.4 0.0 1.6
22:28 11.5 9.4 87 1006.6 11.4 SW 11.4 0.0 1.6
22:29 11.5 9.4 87 1006.4 8.3 SW 11.4 0.0 1.6
22:30 11.5 9.4 87 1006.4 8.3 SW 11.4 0.0 1.6
22:31 11.5 9.4 87 1006.5 8.3 SW 11.4 0.0 1.6
22:32 11.5 9.4 87 1006.5 13.6 SW 13.6 0.0 1.6
22:33 11.5 9.6 88 1006.7 11.4 S 13.6 0.0 1.6
22:34 11.5 9.6 88 1006.6 9.2 S 13.6 0.0 1.6
22:35 11.5 9.6 88 1006.5 9.8 NW 13.6 0.0 1.6
22:36 11.5 9.6 88 1006.6 8.3 SE 13.6 0.0 1.6
22:37 11.5 9.6 88 1006.4 3.8 W 13.6 0.0 1.6
22:38 11.6 9.7 88 1006.5 12.1 W 13.6 0.0 1.6
22:39 11.6 9.7 88 1006.5 11.4 SW 13.6 0.0 1.6
22:40 11.6 9.7 88 1006.6 9.2 W 13.6 0.0 1.6
22:42 11.6 9.7 88 1006.6 11.4 SW 12.1 0.0 1.6
22:43 11.6 9.5 87 1006.7 7.6 S 12.1 0.0 1.6
22:44 11.6 9.5 87 1006.5 12.1 SW 12.1 0.0 1.6
22:45 11.6 9.5 87 1006.4 9.8 WSW 13.0 0.0 1.6
22:46 11.6 9.5 87 1006.4 7.6 W 13.0 0.0 1.6
22:47 11.6 9.5 87 1006.5 8.3 W 13.0 0.0 1.6
22:48 11.6 9.5 87 1006.6 11.4 W 13.0 0.0 1.6
22:49 11.6 9.5 87 1006.5 8.3 SW 13.0 0.0 1.6
22:50 11.6 9.5 87 1006.6 7.6 SE 13.0 0.0 1.6
22:51 11.6 9.5 87 1006.4 8.3 SSW 13.0 0.0 1.6
22:52 11.6 9.5 87 1006.5 6.9 SW 13.0 0.0 1.6
22:53 11.6 9.5 87 1006.7 6.0 SW 13.0 0.0 1.6
22:54 11.6 9.5 87 1006.7 8.3 NW 13.0 0.0 1.6
22:55 11.6 9.5 87 1006.5 5.4 SW 13.0 0.0 1.6
22:56 11.6 9.5 87 1006.7 5.4 N 11.4 0.0 1.6
22:58 11.6 9.5 87 1006.6 9.2 W 11.4 0.0 1.6
22:59 11.6 9.5 87 1006.5 9.2 SW 9.2 0.0 1.6
23:00 11.6 9.7 88 1006.6 9.2 SW 9.2 0.0 1.6
23:01 11.6 9.7 88 1006.5 9.2 SW 9.2 0.0 1.6
23:02 11.6 9.7 88 1006.6 9.2 SW 9.2 0.0 1.6
23:03 11.6 9.7 88 1006.5 9.2 SW 9.2 0.0 1.6
23:04 11.6 9.7 88 1006.6 9.2 SW 9.2 0.0 1.6
23:05 11.6 9.7 88 1006.5 9.2 SW 9.2 0.0 1.6
23:06 11.6 9.7 88 1006.5 9.2 SW 9.2 0.0 1.6
23:07 11.6 9.7 88 1006.6 9.2 SW 9.2 0.0 1.6
23:08 11.6 9.5 87 1006.4 5.4 SW 9.2 0.0 1.6
23:09 11.6 9.5 87 1006.6 3.8 SW 9.2 0.0 1.6
23:10 11.6 9.5 87 1006.6 8.3 WSW 9.2 0.0 1.6
23:11 11.6 9.5 87 1006.6 8.3 S 9.2 0.0 1.6
23:12 11.6 9.5 87 1006.5 8.3 W 9.2 0.0 1.6
23:13 11.6 9.5 87 1006.6 9.2 W 9.2 0.0 1.6
23:15 11.6 9.5 87 1006.5 8.3 SW 9.2 0.0 1.6
23:16 11.6 9.5 87 1006.5 8.3 W 9.2 0.0 1.6
23:17 11.6 9.5 87 1006.5 5.4 W 9.2 0.0 1.6
23:18 11.6 9.5 87 1006.4 7.6 NW 9.2 0.0 1.6
23:19 11.6 9.5 87 1006.4 4.5 SW 9.2 0.0 1.6
23:20 11.6 9.5 87 1006.5 9.8 SW 9.8 0.0 1.6
23:21 11.6 9.5 87 1006.5 7.6 S 9.8 0.0 1.6
23:22 11.6 9.5 87 1006.5 7.6 S 9.8 0.0 1.6
23:23 11.6 9.5 87 1006.4 9.2 SW 9.8 0.0 1.6
23:24 11.6 9.5 87 1006.5 9.2 SW 9.8 0.0 1.6
23:25 11.6 9.5 87 1006.4 6.9 W 9.8 0.0 1.6
23:26 11.6 9.5 87 1006.3 9.2 SW 9.8 0.0 1.6
23:27 11.6 9.5 87 1006.5 10.7 S 10.7 0.0 1.6
23:28 11.6 9.5 87 1006.4 8.3 SW 10.7 0.0 1.6
23:29 11.6 9.5 87 1006.6 13.0 SW 13.0 0.0 1.6
23:31 11.6 9.5 87 1006.3 13.0 W 13.0 0.0 1.6
23:32 11.6 9.5 87 1006.5 9.2 SW 13.0 0.0 1.6
23:34 11.6 9.5 87 1006.5 6.9 W 13.0 0.0 1.6
23:35 11.6 9.5 87 1006.3 6.9 W 13.0 0.0 1.6
23:36 11.6 9.5 87 1006.4 8.3 S 13.0 0.0 1.6
23:37 11.6 9.5 87 1006.6 9.8 W 13.0 0.0 1.6
23:38 11.6 9.5 87 1006.5 9.8 NW 13.0 0.0 1.6
23:39 11.6 9.5 87 1006.4 7.6 SW 13.0 0.0 1.6
23:40 11.6 9.5 87 1006.3 6.9 W 13.0 0.0 1.6
23:41 11.6 9.5 87 1006.5 11.4 SW 11.4 0.0 1.6
23:42 11.6 9.5 87 1006.4 10.7 N 11.4 0.0 1.6
23:43 11.6 9.5 87 1006.4 10.7 W 11.4 0.0 1.6
23:44 11.6 9.5 87 1006.4 11.4 W 11.4 0.0 1.6
23:45 11.6 9.5 87 1006.5 8.3 NE 11.4 0.0 1.6
23:46 11.6 9.5 87 1006.5 8.3 SW 11.4 0.0 1.6
23:47 11.6 9.5 87 1006.7 9.2 W 11.4 0.0 1.6
23:48 11.6 9.5 87 1006.5 6.0 W 11.4 0.0 1.6
23:49 11.6 9.5 87 1006.4 7.6 W 11.4 0.0 1.6
23:50 11.6 9.5 87 1006.5 6.0 W 11.4 0.0 1.6
23:51 11.6 9.5 87 1006.5 8.3 NW 11.4 0.0 1.6
23:53 11.6 9.5 87 1006.4 8.3 W 11.4 0.0 1.6
23:54 11.6 9.5 87 1006.4 4.5 W 11.4 0.0 1.6
23:55 11.6 9.5 87 1006.6 4.5 W 9.2 0.0 1.6
23:56 11.6 9.5 87 1006.5 6.0 NW 9.2 0.0 1.6
23:57 11.6 9.5 87 1006.3 8.3 SW 9.2 0.0 1.6
23:58 11.6 9.5 87 1006.5 6.9 WNW 9.2 0.0 1.6
23:59 11.6 9.5 87 1006.2 7.6 SW 9.2 0.0 1.6

 

 

UK - WEATHER STATION TOPSITES - UK World Weather Websites

Copyright © Carnkie Weather 2009 - 2020.